Observation data for Segovia 7SSW on 06/14/2019      Previous  Date       Current Mesonet Observations  Soil Data  Daily Summary Page  Observations in Plain Language
KSE2 140500Z 15005KT 22/18 A3009 RMK A01 T02190176  RH  077%=      5-min Rain = 0
KSE2 140501Z 15006KT 22/18 A3009 RMK A01 T02190176  RH  077%=      5-min Rain = 0
KSE2 140502Z 15007KT 22/18 A3009 RMK A01 T02190176  RH  077%=      5-min Rain = 0
KSE2 140503Z 15006KT 22/18 A3009 RMK A01 T02190176  RH  076%=      5-min Rain = 0
KSE2 140504Z 14006KT 22/18 A3009 RMK A01 T02200176  RH  076%=      5-min Rain = 0
KSE2 140505Z 14006KT 22/18 A3009 RMK A01 T02200176  RH  076%=      5-min Rain = 0
KSE2 140506Z 15006KT 22/18 A3008 RMK A01 T02200176  RH  076%=      5-min Rain = 0
KSE2 140507Z 15007KT 22/18 A3008 RMK A01 T02200175  RH  076%=      5-min Rain = 0
KSE2 140508Z 15006KT 22/18 A3008 RMK A01 T02200175  RH  075%=      5-min Rain = 0
KSE2 140509Z 14006KT 22/18 A3008 RMK A01 T02210176  RH  076%=      5-min Rain = 0
KSE2 140510Z 15006KT 22/18 A3008 RMK A01 T02200176  RH  076%=      5-min Rain = 0
KSE2 140511Z 15006KT 22/18 A3008 RMK A01 T02210176  RH  076%=      5-min Rain = 0
KSE2 140512Z 16006KT 22/18 A3008 RMK A01 T02200176  RH  076%=      5-min Rain = 0
KSE2 140513Z 15006KT 22/18 A3009 RMK A01 T02200175  RH  075%=      5-min Rain = 0
KSE2 140514Z 15006KT 22/18 A3009 RMK A01 T02210175  RH  075%=      5-min Rain = 0
KSE2 140515Z 15007KT 22/18 A3009 RMK A01 T02210176  RH  075%=      5-min Rain = 0
KSE2 140516Z 15006KT 22/18 A3009 RMK A01 T02210175  RH  075%=      5-min Rain = 0
KSE2 140517Z 15006KT 22/18 A3009 RMK A01 T02210176  RH  075%=      5-min Rain = 0
KSE2 140518Z 15006KT 22/18 A3009 RMK A01 T02210176  RH  075%=      5-min Rain = 0
KSE2 140519Z 15006KT 22/18 A3009 RMK A01 T02210175  RH  075%=      5-min Rain = 0
KSE2 140520Z 15006KT 22/18 A3008 RMK A01 T02200175  RH  075%=      5-min Rain = 0
KSE2 140521Z 15007KT 22/18 A3008 RMK A01 T02200175  RH  075%=      5-min Rain = 0
KSE2 140522Z 15007KT 22/18 A3008 RMK A01 T02200175  RH  076%=      5-min Rain = 0
KSE2 140523Z 15007KT 22/18 A3008 RMK A01 T02200175  RH  075%=      5-min Rain = 0
KSE2 140524Z 15006KT 22/18 A3008 RMK A01 T02200175  RH  075%=      5-min Rain = 0
KSE2 140525Z 15006KT 22/18 A3008 RMK A01 T02200175  RH  076%=      5-min Rain = 0
KSE2 140526Z 14008KT 22/18 A3008 RMK A01 T02200175  RH  075%=      5-min Rain = 0
KSE2 140527Z 15007KT 22/18 A3008 RMK A01 T02200175  RH  075%=      5-min Rain = 0
KSE2 140528Z 15007KT 22/18 A3008 RMK A01 T02200175  RH  075%=      5-min Rain = 0
KSE2 140529Z 15008KT 22/17 A3008 RMK A01 T02210174  RH  075%=      5-min Rain = 0
KSE2 140530Z 15006KT 22/18 A3008 RMK A01 T02210175  RH  075%=      5-min Rain = 0
KSE2 140531Z 15006KT 22/18 A3008 RMK A01 T02210175  RH  075%=      5-min Rain = 0
KSE2 140532Z 15007KT 22/18 A3008 RMK A01 T02210175  RH  075%=      5-min Rain = 0
KSE2 140533Z 15008KT 22/17 A3008 RMK A01 T02200174  RH  075%=      5-min Rain = 0
KSE2 140534Z 15008KT 22/17 A3008 RMK A01 T02200174  RH  075%=      5-min Rain = 0
KSE2 140535Z 16007KT 22/18 A3008 RMK A01 T02210175  RH  075%=      5-min Rain = 0
KSE2 140536Z 15007KT 22/18 A3008 RMK A01 T02210175  RH  075%=      5-min Rain = 0
KSE2 140537Z 15007KT 22/18 A3008 RMK A01 T02210175  RH  075%=      5-min Rain = 0
KSE2 140538Z 15007KT 22/18 A3008 RMK A01 T02210175  RH  075%=      5-min Rain = 0
KSE2 140539Z 15008KT 22/18 A3008 RMK A01 T02210175  RH  075%=      5-min Rain = 0
KSE2 140540Z 14007KT 22/17 A3008 RMK A01 T02210174  RH  075%=      5-min Rain = 0
KSE2 140541Z 16007KT 22/18 A3008 RMK A01 T02210175  RH  075%=      5-min Rain = 0
KSE2 140542Z 15008KT 22/18 A3008 RMK A01 T02210175  RH  075%=      5-min Rain = 0
KSE2 140543Z 15008KT 22/17 A3008 RMK A01 T02200174  RH  075%=      5-min Rain = 0
KSE2 140544Z 15008KT 22/18 A3008 RMK A01 T02210175  RH  075%=      5-min Rain = 0
KSE2 140545Z 15008KT 22/18 A3008 RMK A01 T02210175  RH  075%=      5-min Rain = 0
KSE2 140546Z 15008KT 22/17 A3009 RMK A01 T02210174  RH  075%=      5-min Rain = 0
KSE2 140547Z 15008KT 22/18 A3009 RMK A01 T02210175  RH  075%=      5-min Rain = 0
KSE2 140548Z 16007KT 22/17 A3009 RMK A01 T02210174  RH  075%=      5-min Rain = 0
KSE2 140549Z 15009KT 22/17 A3009 RMK A01 T02210174  RH  075%=      5-min Rain = 0
KSE2 140550Z 15008KT 22/18 A3009 RMK A01 T02220175  RH  075%=      5-min Rain = 0
KSE2 140551Z 15008KT 22/17 A3009 RMK A01 T02210174  RH  075%=      5-min Rain = 0
KSE2 140552Z 15008KT 22/18 A3009 RMK A01 T02210175  RH  075%=      5-min Rain = 0
KSE2 140553Z 15008KT 22/17 A3009 RMK A01 T02210174  RH  074%=      5-min Rain = 0
KSE2 140554Z 14008KT 22/17 A3009 RMK A01 T02220174  RH  074%=      5-min Rain = 0
KSE2 140555Z 15010KT 22/17 A3009 RMK A01 T02220174  RH  075%=      5-min Rain = 0
KSE2 140556Z 15010KT 22/17 A3009 RMK A01 T02220174  RH  074%=      5-min Rain = 0
KSE2 140557Z 15008KT 22/18 A3009 RMK A01 T02220175  RH  074%=      5-min Rain = 0
KSE2 140558Z 15010KT 22/18 A3009 RMK A01 T02220175  RH  075%=      5-min Rain = 0
KSE2 140559Z 15009KT 22/17 A3009 RMK A01 T02210174  RH  075%=      5-min Rain = 0
KSE2 140600Z 15009KT 22/17 A3009 RMK A01 T02210174  RH  075%=      5-min Rain = 0
KSE2 140601Z 15009KT 22/17 A3009 RMK A01 T02210174  RH  075%=      5-min Rain = 0
KSE2 140602Z 15008KT 22/17 A3009 RMK A01 T02210174  RH  075%=      5-min Rain = 0
KSE2 140603Z 15008KT 22/18 A3009 RMK A01 T02210175  RH  075%=      5-min Rain = 0
KSE2 140604Z 16008KT 22/18 A3009 RMK A01 T02210175  RH  075%=      5-min Rain = 0
KSE2 140605Z 15008KT 22/18 A3008 RMK A01 T02210175  RH  075%=      5-min Rain = 0
KSE2 140606Z 15007KT 22/17 A3008 RMK A01 T02200174  RH  075%=      5-min Rain = 0
KSE2 140607Z 16007KT 22/18 A3009 RMK A01 T02200175  RH  075%=      5-min Rain = 0
KSE2 140608Z 15009KT 22/17 A3009 RMK A01 T02200174  RH  075%=      5-min Rain = 0
KSE2 140609Z 16008KT 22/18 A3009 RMK A01 T02200175  RH  075%=      5-min Rain = 0
KSE2 140610Z 16008KT 22/17 A3009 RMK A01 T02200174  RH  075%=      5-min Rain = 0
KSE2 140611Z 15007KT 22/18 A3009 RMK A01 T02200175  RH  075%=      5-min Rain = 0
KSE2 140612Z 16011KT 22/17 A3009 RMK A01 T02200174  RH  075%=      5-min Rain = 0
KSE2 140613Z 15009KT 22/17 A3009 RMK A01 T02210174  RH  075%=      5-min Rain = 0
KSE2 140614Z 16009KT 22/17 A3008 RMK A01 T02210174  RH  075%=      5-min Rain = 0
KSE2 140615Z 16009KT 22/17 A3008 RMK A01 T02210174  RH  074%=      5-min Rain = 0
KSE2 140616Z 16009KT 22/18 A3008 RMK A01 T02220175  RH  075%=      5-min Rain = 0
KSE2 140617Z 15009KT 22/18 A3008 RMK A01 T02220175  RH  075%=      5-min Rain = 0
KSE2 140618Z 15009KT 22/17 A3008 RMK A01 T02210174  RH  075%=      5-min Rain = 0
KSE2 140619Z 15008KT 22/17 A3009 RMK A01 T02210174  RH  075%=      5-min Rain = 0
KSE2 140620Z 16009KT 22/17 A3009 RMK A01 T02210174  RH  075%=      5-min Rain = 0
KSE2 140621Z 16008KT 22/17 A3009 RMK A01 T02210174  RH  075%=      5-min Rain = 0
KSE2 140622Z 16009KT 22/18 A3009 RMK A01 T02210175  RH  075%=      5-min Rain = 0
KSE2 140623Z 15010KT 22/17 A3009 RMK A01 T02200174  RH  075%=      5-min Rain = 0
KSE2 140624Z 15008KT 22/17 A3009 RMK A01 T02200174  RH  075%=      5-min Rain = 0
KSE2 140625Z 15009KT 22/17 A3009 RMK A01 T02200174  RH  075%=      5-min Rain = 0
KSE2 140626Z 16007KT 22/18 A3009 RMK A01 T02210175  RH  075%=      5-min Rain = 0
KSE2 140627Z 15009KT 22/18 A3009 RMK A01 T02210175  RH  075%=      5-min Rain = 0
KSE2 140628Z 16008KT 22/18 A3009 RMK A01 T02210175  RH  075%=      5-min Rain = 0
KSE2 140629Z 16008KT 22/18 A3009 RMK A01 T02200175  RH  075%=      5-min Rain = 0
KSE2 140630Z 15008KT 22/18 A3009 RMK A01 T02200175  RH  075%=      5-min Rain = 0
KSE2 140631Z 15008G13KT 22/18 A3009 RMK A01 T02200175  RH  076%=      5-min Rain = 0
KSE2 140632Z 16009KT 22/18 A3009 RMK A01 T02200175  RH  076%=      5-min Rain = 0
KSE2 140633Z 15010KT 22/18 A3009 RMK A01 T02200175  RH  076%=      5-min Rain = 0
KSE2 140634Z 15010KT 22/18 A3009 RMK A01 T02200175  RH  075%=      5-min Rain = 0
KSE2 140635Z 15009KT 22/18 A3009 RMK A01 T02200175  RH  075%=      5-min Rain = 0
KSE2 140636Z 15009KT 22/18 A3008 RMK A01 T02210175  RH  075%=      5-min Rain = 0
KSE2 140637Z 15010KT 22/18 A3008 RMK A01 T02200175  RH  075%=      5-min Rain = 0
KSE2 140638Z 15009KT 22/18 A3008 RMK A01 T02200175  RH  075%=      5-min Rain = 0
KSE2 140639Z 16007KT 22/18 A3008 RMK A01 T02200175  RH  076%=      5-min Rain = 0
KSE2 140640Z 15009KT 22/18 A3008 RMK A01 T02200175  RH  076%=      5-min Rain = 0
KSE2 140641Z 15009KT 22/18 A3008 RMK A01 T02190175  RH  076%=      5-min Rain = 0
KSE2 140642Z 15009KT 22/18 A3008 RMK A01 T02190175  RH  076%=      5-min Rain = 0
KSE2 140643Z 15009G14KT 22/18 A3008 RMK A01 T02190175  RH  076%=      5-min Rain = 0
KSE2 140644Z 15009KT 22/17 A3008 RMK A01 T02190174  RH  076%=      5-min Rain = 0
KSE2 140645Z 15008KT 22/18 A3008 RMK A01 T02190175  RH  076%=      5-min Rain = 0
KSE2 140646Z 15010KT 22/18 A3008 RMK A01 T02190175  RH  076%=      5-min Rain = 0
KSE2 140647Z 15009KT 22/18 A3008 RMK A01 T02190175  RH  076%=      5-min Rain = 0
KSE2 140648Z 15011KT 22/18 A3008 RMK A01 T02190175  RH  076%=      5-min Rain = 0
KSE2 140649Z 14012KT 22/18 A3008 RMK A01 T02190175  RH  076%=      5-min Rain = 0
KSE2 140650Z 15009KT 22/18 A3007 RMK A01 T02190175  RH  076%=      5-min Rain = 0
KSE2 140651Z 15008KT 22/18 A3007 RMK A01 T02190175  RH  076%=      5-min Rain = 0
KSE2 140652Z 14011KT 22/18 A3007 RMK A01 T02190175  RH  076%=      5-min Rain = 0
KSE2 140653Z 15013KT 22/18 A3007 RMK A01 T02190175  RH  076%=      5-min Rain = 0
KSE2 140654Z 15010KT 22/18 A3007 RMK A01 T02190175  RH  076%=      5-min Rain = 0
KSE2 140655Z 14009KT 22/18 A3007 RMK A01 T02190175  RH  076%=      5-min Rain = 0
KSE2 140656Z 15012KT 22/18 A3007 RMK A01 T02190175  RH  076%=      5-min Rain = 0
KSE2 140657Z 14011KT 22/18 A3007 RMK A01 T02190175  RH  076%=      5-min Rain = 0
KSE2 140658Z 15009KT 22/18 A3007 RMK A01 T02190175  RH  076%=      5-min Rain = 0
KSE2 140659Z 15010KT 22/18 A3007 RMK A01 T02190175  RH  076%=      5-min Rain = 0
KSE2 140700Z 14010KT 22/18 A3007 RMK A01 T02190176  RH  076%=      5-min Rain = 0
KSE2 140701Z 14010KT 22/18 A3007 RMK A01 T02190176  RH  076%=      5-min Rain = 0
KSE2 140702Z 15009KT 22/18 A3008 RMK A01 T02190175  RH  076%=      5-min Rain = 0
KSE2 140703Z 15009KT 22/18 A3008 RMK A01 T02190175  RH  076%=      5-min Rain = 0
KSE2 140704Z 15011G17KT 22/18 A3008 RMK A01 T02190175  RH  076%=      5-min Rain = 0
KSE2 140705Z 15010KT 22/18 A3008 RMK A01 T02190175  RH  076%=      5-min Rain = 0
KSE2 140706Z 14009KT 22/18 A3008 RMK A01 T02190175  RH  076%=      5-min Rain = 0
KSE2 140707Z 15010KT 22/18 A3008 RMK A01 T02190175  RH  076%=      5-min Rain = 0
KSE2 140708Z 15008KT 22/18 A3008 RMK A01 T02190176  RH  076%=      5-min Rain = 0
KSE2 140709Z 15010KT 22/18 A3008 RMK A01 T02190176  RH  076%=      5-min Rain = 0
KSE2 140710Z 14011KT 22/18 A3008 RMK A01 T02180175  RH  077%=      5-min Rain = 0
KSE2 140711Z 14010KT 22/18 A3008 RMK A01 T02190176  RH  076%=      5-min Rain = 0
KSE2 140712Z 15009KT 22/18 A3008 RMK A01 T02190176  RH  077%=      5-min Rain = 0
KSE2 140713Z 14008KT 22/18 A3008 RMK A01 T02180176  RH  077%=      5-min Rain = 0
KSE2 140714Z 15010KT 22/18 A3008 RMK A01 T02180176  RH  077%=      5-min Rain = 0
KSE2 140715Z 15009KT 22/18 A3008 RMK A01 T02180176  RH  077%=      5-min Rain = 0
KSE2 140716Z 15008KT 22/18 A3008 RMK A01 T02180176  RH  077%=      5-min Rain = 0
KSE2 140717Z 14009G14KT 22/18 A3007 RMK A01 T02170176  RH  077%=      5-min Rain = 0
KSE2 140718Z 15011KT 22/18 A3007 RMK A01 T02170177  RH  078%=      5-min Rain = 0
KSE2 140719Z 14009KT 22/18 A3007 RMK A01 T02170176  RH  077%=      5-min Rain = 0
KSE2 140720Z 15011KT 22/18 A3007 RMK A01 T02170176  RH  078%=      5-min Rain = 0
KSE2 140721Z 15011KT 22/18 A3007 RMK A01 T02170176  RH  077%=      5-min Rain = 0
KSE2 140722Z 15008KT 22/18 A3007 RMK A01 T02170176  RH  078%=      5-min Rain = 0
KSE2 140723Z 15009KT 22/18 A3007 RMK A01 T02170177  RH  078%=      5-min Rain = 0
KSE2 140724Z 15009KT 22/18 A3007 RMK A01 T02170177  RH  078%=      5-min Rain = 0
KSE2 140725Z 15010KT 22/18 A3007 RMK A01 T02160177  RH  078%=      5-min Rain = 0
KSE2 140726Z 15010KT 22/18 A3007 RMK A01 T02160177  RH  078%=      5-min Rain = 0
KSE2 140727Z 15011KT 22/18 A3006 RMK A01 T02160177  RH  078%=      5-min Rain = 0
KSE2 140728Z 15010KT 22/18 A3006 RMK A01 T02160177  RH  078%=      5-min Rain = 0
KSE2 140729Z 15010KT 22/18 A3006 RMK A01 T02160177  RH  078%=      5-min Rain = 0
KSE2 140730Z 15010KT 22/18 A3006 RMK A01 T02160177  RH  079%=      5-min Rain = 0
KSE2 140731Z 15009KT 22/18 A3006 RMK A01 T02160177  RH  078%=      5-min Rain = 0
KSE2 140732Z 15008KT 22/18 A3006 RMK A01 T02160177  RH  079%=      5-min Rain = 0
KSE2 140733Z 15010KT 22/18 A3006 RMK A01 T02150177  RH  079%=      5-min Rain = 0
KSE2 140734Z 15009KT 22/18 A3006 RMK A01 T02150177  RH  079%=      5-min Rain = 0
KSE2 140735Z 15010KT 22/18 A3006 RMK A01 T02150177  RH  079%=      5-min Rain = 0
KSE2 140736Z 15011KT 22/18 A3006 RMK A01 T02150177  RH  079%=      5-min Rain = 0
KSE2 140737Z 15008KT 22/18 A3006 RMK A01 T02150177  RH  079%=      5-min Rain = 0
KSE2 140738Z 15010KT 22/18 A3006 RMK A01 T02150177  RH  079%=      5-min Rain = 0
KSE2 140739Z 15009KT 22/18 A3006 RMK A01 T02150178  RH  079%=      5-min Rain = 0
KSE2 140740Z 15008KT 22/18 A3006 RMK A01 T02150178  RH  079%=      5-min Rain = 0
KSE2 140741Z 15010KT 21/18 A3006 RMK A01 T02140178  RH  079%=      5-min Rain = 0
KSE2 140742Z 15011KT 21/18 A3006 RMK A01 T02140178  RH  080%=      5-min Rain = 0
KSE2 140743Z 15009G14KT 21/18 A3006 RMK A01 T02140178  RH  079%=      5-min Rain = 0
KSE2 140744Z 15010KT 21/18 A3006 RMK A01 T02140178  RH  080%=      5-min Rain = 0
KSE2 140745Z 15010KT 21/18 A3006 RMK A01 T02140178  RH  080%=      5-min Rain = 0
KSE2 140746Z 15008KT 21/18 A3006 RMK A01 T02140178  RH  080%=      5-min Rain = 0
KSE2 140747Z 14009KT 21/18 A3006 RMK A01 T02140178  RH  080%=      5-min Rain = 0
KSE2 140748Z 15007KT 21/18 A3006 RMK A01 T02140178  RH  080%=      5-min Rain = 0
KSE2 140749Z 15009KT 21/18 A3006 RMK A01 T02140178  RH  080%=      5-min Rain = 0
KSE2 140750Z 15009KT 21/18 A3006 RMK A01 T02130178  RH  080%=      5-min Rain = 0
KSE2 140751Z 15009KT 21/18 A3006 RMK A01 T02130178  RH  080%=      5-min Rain = 0
KSE2 140752Z 15008KT 21/18 A3006 RMK A01 T02130178  RH  081%=      5-min Rain = 0
KSE2 140753Z 15008KT 21/18 A3006 RMK A01 T02130179  RH  081%=      5-min Rain = 0
KSE2 140754Z 15011KT 21/18 A3006 RMK A01 T02120178  RH  081%=      5-min Rain = 0
KSE2 140755Z 15009KT 21/18 A3006 RMK A01 T02130178  RH  081%=      5-min Rain = 0
KSE2 140756Z 15009KT 21/18 A3006 RMK A01 T02130178  RH  081%=      5-min Rain = 0
KSE2 140757Z 15009KT 21/18 A3006 RMK A01 T02130178  RH  081%=      5-min Rain = 0
KSE2 140758Z 15008KT 21/18 A3006 RMK A01 T02130178  RH  081%=      5-min Rain = 0
KSE2 140759Z 16008KT 21/18 A3006 RMK A01 T02130178  RH  081%=      5-min Rain = 0
KSE2 140800Z 15008KT 21/18 A3006 RMK A01 T02130178  RH  081%=      5-min Rain = 0
KSE2 140801Z 15009KT 21/18 A3006 RMK A01 T02130179  RH  081%=      5-min Rain = 0
KSE2 140802Z 15009KT 21/18 A3006 RMK A01 T02130178  RH  081%=      5-min Rain = 0
KSE2 140803Z 15007KT 21/18 A3006 RMK A01 T02130179  RH  081%=      5-min Rain = 0
KSE2 140804Z 16007KT 21/18 A3006 RMK A01 T02130179  RH  081%=      5-min Rain = 0
KSE2 140805Z 16008KT 21/18 A3006 RMK A01 T02120179  RH  081%=      5-min Rain = 0
KSE2 140806Z 16009KT 21/18 A3006 RMK A01 T02120179  RH  081%=      5-min Rain = 0
KSE2 140807Z 15007KT 21/18 A3006 RMK A01 T02120179  RH  081%=      5-min Rain = 0
KSE2 140808Z 15008KT 21/18 A3006 RMK A01 T02120179  RH  081%=      5-min Rain = 0
KSE2 140809Z 15010KT 21/18 A3006 RMK A01 T02120179  RH  081%=      5-min Rain = 0
KSE2 140810Z 15008KT 21/18 A3006 RMK A01 T02120179  RH  081%=      5-min Rain = 0
KSE2 140811Z 15008KT 21/18 A3006 RMK A01 T02120179  RH  081%=      5-min Rain = 0
KSE2 140812Z 15008KT 21/18 A3006 RMK A01 T02120179  RH  082%=      5-min Rain = 0
KSE2 140813Z 15007KT 21/18 A3006 RMK A01 T02120179  RH  082%=      5-min Rain = 0
KSE2 140814Z 15008KT 21/18 A3006 RMK A01 T02120179  RH  082%=      5-min Rain = 0
KSE2 140815Z 15007KT 21/18 A3006 RMK A01 T02110179  RH  082%=      5-min Rain = 0
KSE2 140816Z 16007KT 21/18 A3006 RMK A01 T02110179  RH  082%=      5-min Rain = 0
KSE2 140817Z 16008KT 21/18 A3006 RMK A01 T02110179  RH  082%=      5-min Rain = 0
KSE2 140818Z 15007KT 21/18 A3006 RMK A01 T02110179  RH  082%=      5-min Rain = 0
KSE2 140819Z 16009KT 21/18 A3006 RMK A01 T02110180  RH  082%=      5-min Rain = 0
KSE2 140820Z 15008KT 21/18 A3006 RMK A01 T02110180  RH  082%=      5-min Rain = 0
KSE2 140821Z 15007KT 21/18 A3006 RMK A01 T02110180  RH  082%=      5-min Rain = 0
KSE2 140822Z 15008KT 21/18 A3006 RMK A01 T02100180  RH  083%=      5-min Rain = 0
KSE2 140823Z 16007KT 21/18 A3006 RMK A01 T02110180  RH  082%=      5-min Rain = 0
KSE2 140824Z 16008KT 21/18 A3006 RMK A01 T02100180  RH  083%=      5-min Rain = 0
KSE2 140825Z 15008KT 21/18 A3006 RMK A01 T02100180  RH  083%=      5-min Rain = 0
KSE2 140826Z 16009KT 21/18 A3006 RMK A01 T02100179  RH  083%=      5-min Rain = 0
KSE2 140827Z 16008G13KT 21/18 A3006 RMK A01 T02100180  RH  083%=      5-min Rain = 0
KSE2 140828Z 16008KT 21/18 A3006 RMK A01 T02110180  RH  083%=      5-min Rain = 0
KSE2 140829Z 16008KT 21/18 A3006 RMK A01 T02100180  RH  083%=      5-min Rain = 0
KSE2 140830Z 16009KT 21/18 A3006 RMK A01 T02100180  RH  083%=      5-min Rain = 0
KSE2 140831Z 17007KT 21/18 A3006 RMK A01 T02100180  RH  083%=      5-min Rain = 0
KSE2 140832Z 17008KT 21/18 A3006 RMK A01 T02100180  RH  083%=      5-min Rain = 0
KSE2 140833Z 17009KT 21/18 A3006 RMK A01 T02100180  RH  083%=      5-min Rain = 0
KSE2 140834Z 17008KT 21/18 A3006 RMK A01 T02100180  RH  083%=      5-min Rain = 0
KSE2 140835Z 16010KT 21/18 A3006 RMK A01 T02100180  RH  083%=      5-min Rain = 0
KSE2 140836Z 17010KT 21/18 A3006 RMK A01 T02110180  RH  083%=      5-min Rain = 0
KSE2 140837Z 16009KT 21/18 A3006 RMK A01 T02110180  RH  082%=      5-min Rain = 0
KSE2 140838Z 16009KT 21/18 A3006 RMK A01 T02110180  RH  082%=      5-min Rain = 0
KSE2 140839Z 17009KT 21/18 A3006 RMK A01 T02110180  RH  082%=      5-min Rain = 0
KSE2 140840Z 16007KT 21/18 A3006 RMK A01 T02110180  RH  082%=      5-min Rain = 0
KSE2 140841Z 17007KT 21/18 A3006 RMK A01 T02110180  RH  082%=      5-min Rain = 0
KSE2 140842Z 17008KT 21/18 A3006 RMK A01 T02110180  RH  082%=      5-min Rain = 0
KSE2 140843Z 16011KT 21/18 A3006 RMK A01 T02110180  RH  082%=      5-min Rain = 0
KSE2 140844Z 17009KT 21/18 A3006 RMK A01 T02110180  RH  082%=      5-min Rain = 0
KSE2 140845Z 16008KT 21/18 A3006 RMK A01 T02110179  RH  082%=      5-min Rain = 0
KSE2 140846Z 17009G14KT 21/18 A3006 RMK A01 T02110179  RH  082%=      5-min Rain = 0
KSE2 140847Z 16011KT 21/18 A3006 RMK A01 T02110180  RH  082%=      5-min Rain = 0
KSE2 140848Z 16010KT 21/18 A3006 RMK A01 T02110179  RH  082%=      5-min Rain = 0
KSE2 140849Z 16009KT 21/18 A3006 RMK A01 T02120179  RH  082%=      5-min Rain = 0
KSE2 140850Z 16008KT 21/18 A3006 RMK A01 T02120179  RH  082%=      5-min Rain = 0
KSE2 140851Z 16009KT 21/18 A3006 RMK A01 T02110179  RH  082%=      5-min Rain = 0
KSE2 140852Z 16011KT 21/18 A3006 RMK A01 T02120179  RH  082%=      5-min Rain = 0
KSE2 140853Z 17010KT 21/18 A3006 RMK A01 T02120178  RH  081%=      5-min Rain = 0
KSE2 140854Z 16010KT 21/18 A3006 RMK A01 T02120178  RH  081%=      5-min Rain = 0
KSE2 140855Z 16009KT 21/18 A3006 RMK A01 T02120178  RH  081%=      5-min Rain = 0
KSE2 140856Z 16009KT 21/18 A3006 RMK A01 T02120178  RH  081%=      5-min Rain = 0
KSE2 140857Z 17012KT 21/18 A3006 RMK A01 T02120178  RH  081%=      5-min Rain = 0
KSE2 140858Z 17008KT 21/18 A3006 RMK A01 T02120178  RH  081%=      5-min Rain = 0
KSE2 140859Z 16008G15KT 21/18 A3006 RMK A01 T02120178  RH  081%=      5-min Rain = 0
KSE2 140900Z 17011KT 21/18 A3006 RMK A01 T02120177  RH  081%=      5-min Rain = 0
KSE2 140901Z 16009KT 21/18 A3006 RMK A01 T02120177  RH  080%=      5-min Rain = 0
KSE2 140902Z 17009KT 21/18 A3006 RMK A01 T02130177  RH  080%=      5-min Rain = 0
KSE2 140903Z 16010KT 21/18 A3006 RMK A01 T02130176  RH  080%=      5-min Rain = 0
KSE2 140904Z 16013KT 21/18 A3006 RMK A01 T02130176  RH  080%=      5-min Rain = 0
KSE2 140905Z 17009G15KT 21/18 A3006 RMK A01 T02130176  RH  079%=      5-min Rain = 0
KSE2 140906Z 17010G15KT 21/18 A3006 RMK A01 T02140176  RH  079%=      5-min Rain = 0
KSE2 140907Z 16010KT 21/18 A3006 RMK A01 T02130176  RH  079%=      5-min Rain = 0
KSE2 140908Z 17011KT 21/18 A3006 RMK A01 T02140176  RH  079%=      5-min Rain = 0
KSE2 140909Z 17010KT 21/18 A3006 RMK A01 T02140175  RH  079%=      5-min Rain = 0
KSE2 140910Z 16008G13KT 21/18 A3007 RMK A01 T02140175  RH  078%=      5-min Rain = 0
KSE2 140911Z 17010KT 21/18 A3007 RMK A01 T02140176  RH  079%=      5-min Rain = 0
KSE2 140912Z 17008KT 21/18 A3007 RMK A01 T02140175  RH  079%=      5-min Rain = 0
KSE2 140913Z 18009KT 21/18 A3007 RMK A01 T02140176  RH  079%=      5-min Rain = 0
KSE2 140914Z 18008KT 21/18 A3007 RMK A01 T02130175  RH  079%=      5-min Rain = 0
KSE2 140915Z 17012KT 21/18 A3007 RMK A01 T02130175  RH  079%=      5-min Rain = 0
KSE2 140916Z 17008G13KT 21/18 A3007 RMK A01 T02130175  RH  079%=      5-min Rain = 0
KSE2 140917Z 17012KT 21/17 A3007 RMK A01 T02130174  RH  078%=      5-min Rain = 0
KSE2 140918Z 18009KT 21/17 A3007 RMK A01 T02140174  RH  078%=      5-min Rain = 0
KSE2 140919Z 17010KT 21/18 A3007 RMK A01 T02140175  RH  078%=      5-min Rain = 0
KSE2 140920Z 18010G15KT 21/17 A3007 RMK A01 T02140174  RH  078%=      5-min Rain = 0
KSE2 140921Z 17010KT 21/17 A3008 RMK A01 T02140174  RH  078%=      5-min Rain = 0
KSE2 140922Z 18010KT 21/18 A3008 RMK A01 T02140175  RH  078%=      5-min Rain = 0
KSE2 140923Z 18008KT 21/18 A3008 RMK A01 T02140175  RH  078%=      5-min Rain = 0
KSE2 140924Z 18009KT 21/18 A3008 RMK A01 T02140175  RH  078%=      5-min Rain = 0
KSE2 140925Z 18011KT 21/18 A3008 RMK A01 T02140175  RH  078%=      5-min Rain = 0
KSE2 140926Z 17009KT 21/18 A3008 RMK A01 T02140175  RH  078%=      5-min Rain = 0
KSE2 140927Z 18009KT 21/18 A3008 RMK A01 T02140175  RH  078%=      5-min Rain = 0
KSE2 140928Z 17006KT 21/18 A3008 RMK A01 T02130175  RH  079%=      5-min Rain = 0
KSE2 140929Z 18007KT 21/18 A3008 RMK A01 T02130175  RH  079%=      5-min Rain = 0
KSE2 140930Z 17010G15KT 21/17 A3008 RMK A01 T02120174  RH  079%=      5-min Rain = 0
KSE2 140931Z 17010KT 21/17 A3008 RMK A01 T02120174  RH  079%=      5-min Rain = 0
KSE2 140932Z 18011KT 21/17 A3008 RMK A01 T02120174  RH  079%=      5-min Rain = 0
KSE2 140933Z 17010KT 21/17 A3008 RMK A01 T02120173  RH  078%=      5-min Rain = 0
KSE2 140934Z 18009KT 21/17 A3008 RMK A01 T02120174  RH  078%=      5-min Rain = 0
KSE2 140935Z 17010KT 21/17 A3008 RMK A01 T02130174  RH  078%=      5-min Rain = 0
KSE2 140936Z 17010KT 21/17 A3008 RMK A01 T02120174  RH  079%=      5-min Rain = 0
KSE2 140937Z 18008KT 21/17 A3008 RMK A01 T02120174  RH  079%=      5-min Rain = 0
KSE2 140938Z 17010KT 21/17 A3008 RMK A01 T02120174  RH  079%=      5-min Rain = 0
KSE2 140939Z 17008KT 21/17 A3008 RMK A01 T02110173  RH  079%=      5-min Rain = 0
KSE2 140940Z 17011KT 21/17 A3008 RMK A01 T02110174  RH  079%=      5-min Rain = 0
KSE2 140941Z 17009KT 21/17 A3008 RMK A01 T02110173  RH  079%=      5-min Rain = 0
KSE2 140942Z 17009KT 21/17 A3008 RMK A01 T02110173  RH  079%=      5-min Rain = 0
KSE2 140943Z 18009KT 21/17 A3008 RMK A01 T02110173  RH  079%=      5-min Rain = 0
KSE2 140944Z 18011KT 21/17 A3008 RMK A01 T02110173  RH  079%=      5-min Rain = 0
KSE2 140945Z 18009KT 21/17 A3008 RMK A01 T02110173  RH  079%=      5-min Rain = 0
KSE2 140946Z 17008KT 21/17 A3008 RMK A01 T02110173  RH  079%=      5-min Rain = 0
KSE2 140947Z 17007KT 21/17 A3008 RMK A01 T02110173  RH  079%=      5-min Rain = 0
KSE2 140948Z 17008KT 21/17 A3008 RMK A01 T02110172  RH  079%=      5-min Rain = 0
KSE2 140949Z 17010KT 21/17 A3008 RMK A01 T02110172  RH  079%=      5-min Rain = 0
KSE2 140950Z 17006KT 21/17 A3008 RMK A01 T02110173  RH  079%=      5-min Rain = 0
KSE2 140951Z 17009KT 21/17 A3008 RMK A01 T02110172  RH  079%=      5-min Rain = 0
KSE2 140952Z 17008G13KT 21/17 A3008 RMK A01 T02100173  RH  079%=      5-min Rain = 0
KSE2 140953Z 17010KT 21/17 A3008 RMK A01 T02100172  RH  079%=      5-min Rain = 0
KSE2 140954Z 16007KT 21/17 A3008 RMK A01 T02100172  RH  079%=      5-min Rain = 0
KSE2 140955Z 17006G11KT 21/17 A3008 RMK A01 T02100172  RH  079%=      5-min Rain = 0
KSE2 140956Z 17010KT 21/17 A3008 RMK A01 T02100172  RH  079%=      5-min Rain = 0
KSE2 140957Z 17009KT 21/17 A3008 RMK A01 T02100172  RH  079%=      5-min Rain = 0
KSE2 140958Z 16009KT 21/17 A3008 RMK A01 T02100172  RH  079%=      5-min Rain = 0
KSE2 140959Z 16009KT 21/17 A3007 RMK A01 T02100172  RH  079%=      5-min Rain = 0
KSE2 141000Z 16012KT 21/17 A3007 RMK A01 T02100172  RH  079%=      5-min Rain = 0
KSE2 141001Z 16009KT 21/17 A3007 RMK A01 T02100172  RH  079%=      5-min Rain = 0
KSE2 141002Z 16010KT 21/17 A3007 RMK A01 T02090172  RH  079%=      5-min Rain = 0
KSE2 141003Z 16009KT 21/17 A3007 RMK A01 T02090172  RH  079%=      5-min Rain = 0
KSE2 141004Z 16010KT 21/17 A3007 RMK A01 T02090172  RH  079%=      5-min Rain = 0
KSE2 141005Z 15010KT 21/17 A3006 RMK A01 T02090172  RH  079%=      5-min Rain = 0
KSE2 141006Z 15010KT 21/17 A3006 RMK A01 T02090171  RH  079%=      5-min Rain = 0
KSE2 141007Z 15010KT 21/17 A3006 RMK A01 T02090172  RH  079%=      5-min Rain = 0
KSE2 141008Z 15011KT 21/17 A3006 RMK A01 T02090172  RH  079%=      5-min Rain = 0
KSE2 141009Z 16010KT 21/17 A3006 RMK A01 T02090172  RH  079%=      5-min Rain = 0
KSE2 141010Z 16008KT 21/17 A3006 RMK A01 T02080172  RH  080%=      5-min Rain = 0
KSE2 141011Z 16009KT 21/17 A3006 RMK A01 T02080172  RH  080%=      5-min Rain = 0
KSE2 141012Z 16009KT 21/17 A3006 RMK A01 T02080172  RH  080%=      5-min Rain = 0
KSE2 141013Z 16010KT 21/17 A3006 RMK A01 T02080172  RH  080%=      5-min Rain = 0
KSE2 141014Z 16011KT 21/17 A3006 RMK A01 T02080172  RH  080%=      5-min Rain = 0
KSE2 141015Z 16009KT 21/17 A3006 RMK A01 T02070172  RH  080%=      5-min Rain = 0
KSE2 141016Z 15006KT 21/17 A3006 RMK A01 T02070172  RH  080%=      5-min Rain = 0
KSE2 141017Z 17010KT 21/17 A3006 RMK A01 T02070172  RH  080%=      5-min Rain = 0
KSE2 141018Z 16007KT 21/17 A3006 RMK A01 T02070172  RH  080%=      5-min Rain = 0
KSE2 141019Z 16008KT 21/17 A3006 RMK A01 T02070172  RH  080%=      5-min Rain = 0
KSE2 141020Z 16009KT 21/17 A3006 RMK A01 T02070172  RH  080%=      5-min Rain = 0
KSE2 141021Z 16010KT 21/17 A3006 RMK A01 T02070172  RH  080%=      5-min Rain = 0
KSE2 141022Z 16009KT 21/17 A3006 RMK A01 T02070172  RH  080%=      5-min Rain = 0
KSE2 141023Z 16008KT 21/17 A3006 RMK A01 T02070172  RH  080%=      5-min Rain = 0
KSE2 141024Z 15008KT 21/17 A3006 RMK A01 T02070172  RH  081%=      5-min Rain = 0
KSE2 141025Z 16008KT 21/17 A3006 RMK A01 T02060172  RH  081%=      5-min Rain = 0
KSE2 141026Z 16010KT 21/17 A3006 RMK A01 T02060172  RH  081%=      5-min Rain = 0
KSE2 141027Z 16008KT 21/17 A3006 RMK A01 T02060172  RH  081%=      5-min Rain = 0
KSE2 141028Z 16008KT 21/17 A3006 RMK A01 T02060173  RH  081%=      5-min Rain = 0
KSE2 141029Z 16010KT 21/17 A3006 RMK A01 T02060172  RH  081%=      5-min Rain = 0
KSE2 141030Z 16010KT 21/17 A3006 RMK A01 T02050172  RH  081%=      5-min Rain = 0
KSE2 141031Z 15009KT 21/17 A3006 RMK A01 T02060172  RH  081%=      5-min Rain = 0
KSE2 141032Z 15009KT 21/17 A3006 RMK A01 T02060172  RH  081%=      5-min Rain = 0
KSE2 141033Z 16010KT 21/17 A3006 RMK A01 T02060172  RH  081%=      5-min Rain = 0
KSE2 141034Z 16009G15KT 21/17 A3006 RMK A01 T02050172  RH  081%=      5-min Rain = 0
KSE2 141035Z 16009KT 21/17 A3006 RMK A01 T02050172  RH  081%=      5-min Rain = 0
KSE2 141036Z 16010KT 21/17 A3006 RMK A01 T02050172  RH  081%=      5-min Rain = 0
KSE2 141037Z 16011KT 21/17 A3006 RMK A01 T02050172  RH  081%=      5-min Rain = 0
KSE2 141038Z 16011KT 21/17 A3006 RMK A01 T02050172  RH  081%=      5-min Rain = 0
KSE2 141039Z 16009KT 21/17 A3006 RMK A01 T02050172  RH  081%=      5-min Rain = 0
KSE2 141040Z 16007KT 21/17 A3006 RMK A01 T02050172  RH  081%=      5-min Rain = 0
KSE2 141041Z 16008G13KT 21/17 A3006 RMK A01 T02050172  RH  081%=      5-min Rain = 0
KSE2 141042Z 16010KT 20/17 A3006 RMK A01 T02040172  RH  082%=      5-min Rain = 0
KSE2 141043Z 16008KT 20/17 A3006 RMK A01 T02040172  RH  082%=      5-min Rain = 0
KSE2 141044Z 16009KT 20/17 A3006 RMK A01 T02040172  RH  082%=      5-min Rain = 0
KSE2 141045Z 16008KT 20/17 A3006 RMK A01 T02040172  RH  082%=      5-min Rain = 0
KSE2 141046Z 16008KT 20/17 A3006 RMK A01 T02040172  RH  082%=      5-min Rain = 0
KSE2 141047Z 16009G14KT 20/17 A3006 RMK A01 T02040172  RH  082%=      5-min Rain = 0
KSE2 141048Z 16007KT 20/17 A3006 RMK A01 T02040172  RH  082%=      5-min Rain = 0
KSE2 141049Z 17007KT 20/17 A3006 RMK A01 T02040172  RH  082%=      5-min Rain = 0
KSE2 141050Z 16009KT 20/17 A3006 RMK A01 T02040172  RH  082%=      5-min Rain = 0
KSE2 141051Z 16009KT 20/17 A3006 RMK A01 T02040172  RH  082%=      5-min Rain = 0
KSE2 141052Z 16009KT 20/17 A3006 RMK A01 T02040172  RH  082%=      5-min Rain = 0
KSE2 141053Z 16010KT 20/17 A3006 RMK A01 T02040172  RH  082%=      5-min Rain = 0
KSE2 141054Z 16009KT 20/17 A3006 RMK A01 T02040172  RH  082%=      5-min Rain = 0
KSE2 141055Z 16008G13KT 20/17 A3006 RMK A01 T02040172  RH  082%=      5-min Rain = 0
KSE2 141056Z 17010KT 20/17 A3006 RMK A01 T02040172  RH  082%=      5-min Rain = 0
KSE2 141057Z 16011KT 20/17 A3006 RMK A01 T02040171  RH  082%=      5-min Rain = 0
KSE2 141058Z 16011KT 20/17 A3006 RMK A01 T02040172  RH  082%=      5-min Rain = 0
KSE2 141059Z 16010KT 20/17 A3006 RMK A01 T02040172  RH  081%=      5-min Rain = 0
KSE2 141100Z 16009KT 20/17 A3006 RMK A01 T02040172  RH  081%=      5-min Rain = 0
KSE2 141101Z 16009G14KT 20/17 A3006 RMK A01 T02040172  RH  082%=      5-min Rain = 0
KSE2 141102Z 16010KT 20/17 A3006 RMK A01 T02040172  RH  081%=      5-min Rain = 0
KSE2 141103Z 17011KT 21/17 A3006 RMK A01 T02050172  RH  081%=      5-min Rain = 0
KSE2 141104Z 17010KT 21/17 A3006 RMK A01 T02050172  RH  081%=      5-min Rain = 0
KSE2 141105Z 16010KT 21/17 A3006 RMK A01 T02050172  RH  081%=      5-min Rain = 0
KSE2 141106Z 16011G16KT 21/17 A3006 RMK A01 T02050172  RH  081%=      5-min Rain = 0
KSE2 141107Z 16011KT 21/17 A3006 RMK A01 T02050171  RH  081%=      5-min Rain = 0
KSE2 141108Z 16007KT 21/17 A3006 RMK A01 T02050171  RH  081%=      5-min Rain = 0
KSE2 141109Z 16008KT 21/17 A3006 RMK A01 T02050172  RH  081%=      5-min Rain = 0
KSE2 141110Z 16008KT 20/17 A3006 RMK A01 T02040172  RH  081%=      5-min Rain = 0
KSE2 141111Z 17008KT 20/17 A3006 RMK A01 T02040172  RH  082%=      5-min Rain = 0
KSE2 141112Z 16012KT 20/17 A3006 RMK A01 T02040172  RH  082%=      5-min Rain = 0
KSE2 141113Z 16011KT 20/17 A3006 RMK A01 T02040172  RH  082%=      5-min Rain = 0
KSE2 141114Z 17011KT 20/17 A3006 RMK A01 T02040172  RH  082%=      5-min Rain = 0
KSE2 141115Z 17010KT 20/17 A3006 RMK A01 T02040172  RH  081%=      5-min Rain = 0
KSE2 141116Z 16009KT 20/17 A3006 RMK A01 T02040172  RH  081%=      5-min Rain = 0
KSE2 141117Z 16010KT 20/17 A3006 RMK A01 T02040172  RH  082%=      5-min Rain = 0
KSE2 141118Z 17009KT 20/17 A3006 RMK A01 T02040172  RH  082%=      5-min Rain = 0
KSE2 141119Z 17010KT 20/17 A3006 RMK A01 T02040172  RH  082%=      5-min Rain = 0
KSE2 141120Z 16008KT 20/17 A3006 RMK A01 T02040172  RH  082%=      5-min Rain = 0
KSE2 141121Z 17011KT 20/17 A3006 RMK A01 T02040172  RH  082%=      5-min Rain = 0
KSE2 141122Z 17010KT 20/17 A3006 RMK A01 T02040172  RH  082%=      5-min Rain = 0
KSE2 141123Z 17008KT 20/17 A3006 RMK A01 T02030172  RH  082%=      5-min Rain = 0
KSE2 141124Z 17010G15KT 20/17 A3006 RMK A01 T02030172  RH  082%=      5-min Rain = 0
KSE2 141125Z 17007KT 20/17 A3006 RMK A01 T02030172  RH  082%=      5-min Rain = 0
KSE2 141126Z 17009KT 20/17 A3006 RMK A01 T02030172  RH  082%=      5-min Rain = 0
KSE2 141127Z 17009KT 20/17 A3006 RMK A01 T02030172  RH  082%=      5-min Rain = 0
KSE2 141128Z 17008KT 20/17 A3006 RMK A01 T02030172  RH  082%=      5-min Rain = 0
KSE2 141129Z 16009KT 20/17 A3006 RMK A01 T02030172  RH  082%=      5-min Rain = 0
KSE2 141130Z 17008G13KT 20/17 A3006 RMK A01 T02030172  RH  082%=      5-min Rain = 0
KSE2 141131Z 17011KT 20/17 A3006 RMK A01 T02020171  RH  082%=      5-min Rain = 0
KSE2 141132Z 17010KT 20/17 A3006 RMK A01 T02020171  RH  082%=      5-min Rain = 0
KSE2 141133Z 17007KT 20/17 A3006 RMK A01 T02020172  RH  083%=      5-min Rain = 0
KSE2 141134Z 16010G15KT 20/17 A3006 RMK A01 T02020172  RH  083%=      5-min Rain = 0
KSE2 141135Z 17010KT 20/17 A3006 RMK A01 T02020171  RH  083%=      5-min Rain = 0
KSE2 141136Z 17008KT 20/17 A3006 RMK A01 T02020172  RH  083%=      5-min Rain = 0
KSE2 141137Z 16009KT 20/17 A3006 RMK A01 T02010171  RH  083%=      5-min Rain = 0
KSE2 141138Z 18009KT 20/17 A3006 RMK A01 T02010171  RH  083%=      5-min Rain = 0
KSE2 141139Z 17009KT 20/17 A3006 RMK A01 T02010172  RH  083%=      5-min Rain = 0
KSE2 141140Z 18013G19KT 20/17 A3006 RMK A01 T02010171  RH  083%=      5-min Rain = 0
KSE2 141141Z 17009KT 20/17 A3006 RMK A01 T02010171  RH  083%=      5-min Rain = 0
KSE2 141142Z 17007KT 20/17 A3006 RMK A01 T02020171  RH  082%=      5-min Rain = 0
KSE2 141143Z 17009G14KT 20/17 A3006 RMK A01 T02020171  RH  083%=      5-min Rain = 0
KSE2 141144Z 17008G14KT 20/17 A3006 RMK A01 T02010171  RH  083%=      5-min Rain = 0
KSE2 141145Z 17011KT 20/17 A3006 RMK A01 T02010171  RH  083%=      5-min Rain = 0
KSE2 141146Z 17013G18KT 20/17 A3006 RMK A01 T02010171  RH  083%=      5-min Rain = 0
KSE2 141147Z 17010G16KT 20/17 A3006 RMK A01 T02010171  RH  083%=      5-min Rain = 0
KSE2 141148Z 18008KT 20/17 A3006 RMK A01 T02010170  RH  082%=      5-min Rain = 0
KSE2 141149Z 16010KT 20/17 A3006 RMK A01 T02010171  RH  083%=      5-min Rain = 0
KSE2 141150Z 17012KT 20/17 A3006 RMK A01 T02010171  RH  083%=      5-min Rain = 0
KSE2 141151Z 18010KT 20/17 A3006 RMK A01 T02010171  RH  083%=      5-min Rain = 0
KSE2 141152Z 17010KT 20/17 A3006 RMK A01 T02010171  RH  083%=      5-min Rain = 0
KSE2 141153Z 17010KT 20/17 A3006 RMK A01 T02010171  RH  083%=      5-min Rain = 0
KSE2 141154Z 16011KT 20/17 A3006 RMK A01 T02010171  RH  083%=      5-min Rain = 0
KSE2 141155Z 17007KT 20/17 A3006 RMK A01 T02010171  RH  083%=      5-min Rain = 0
KSE2 141156Z 16008KT 20/17 A3006 RMK A01 T02000171  RH  083%=      5-min Rain = 0
KSE2 141157Z 16009KT 20/17 A3006 RMK A01 T02000170  RH  083%=      5-min Rain = 0
KSE2 141158Z 16009KT 20/17 A3006 RMK A01 T02000171  RH  083%=      5-min Rain = 0
KSE2 141159Z 17008G13KT 20/17 A3006 RMK A01 T02010171  RH  083%=      5-min Rain = 0
KSE2 141200Z 17010KT 20/17 A3006 RMK A01 T02000170  RH  083%=      5-min Rain = 0
KSE2 141201Z 17010G16KT 20/17 A3006 RMK A01 T02000170  RH  083%=      5-min Rain = 0
KSE2 141202Z 16010KT 20/17 A3006 RMK A01 T02000170  RH  083%=      5-min Rain = 0
KSE2 141203Z 16009KT 20/17 A3006 RMK A01 T02000170  RH  083%=      5-min Rain = 0
KSE2 141204Z 16009G14KT 20/17 A3006 RMK A01 T02000170  RH  083%=      5-min Rain = 0
KSE2 141205Z 16010KT 20/17 A3005 RMK A01 T02000170  RH  083%=      5-min Rain = 0
KSE2 141206Z 15010G15KT 20/17 A3005 RMK A01 T02010170  RH  083%=      5-min Rain = 0
KSE2 141207Z 16009KT 20/17 A3005 RMK A01 T02000170  RH  082%=      5-min Rain = 0
KSE2 141208Z 16011KT 20/17 A3006 RMK A01 T02000170  RH  083%=      5-min Rain = 0
KSE2 141209Z 17010KT 20/17 A3006 RMK A01 T02000169  RH  082%=      5-min Rain = 0
KSE2 141210Z 17010KT 20/17 A3006 RMK A01 T02000169  RH  082%=      5-min Rain = 0
KSE2 141211Z 16009KT 20/17 A3006 RMK A01 T02000169  RH  082%=      5-min Rain = 0
KSE2 141212Z 16012KT 20/17 A3006 RMK A01 T02010169  RH  082%=      5-min Rain = 0
KSE2 141213Z 17010KT 20/17 A3006 RMK A01 T02010169  RH  082%=      5-min Rain = 0
KSE2 141214Z 17012KT 20/17 A3006 RMK A01 T02010169  RH  082%=      5-min Rain = 0
KSE2 141215Z 16008KT 20/17 A3006 RMK A01 T02010169  RH  082%=      5-min Rain = 0
KSE2 141216Z 17009KT 20/17 A3006 RMK A01 T02010169  RH  082%=      5-min Rain = 0
KSE2 141217Z 16011KT 20/17 A3005 RMK A01 T02010169  RH  082%=      5-min Rain = 0
KSE2 141218Z 16011KT 20/17 A3005 RMK A01 T02010169  RH  082%=      5-min Rain = 0
KSE2 141219Z 16013G18KT 20/17 A3006 RMK A01 T02010169  RH  081%=      5-min Rain = 0
KSE2 141220Z 17009KT 20/17 A3006 RMK A01 T02010168  RH  081%=      5-min Rain = 0
KSE2 141221Z 16010KT 20/17 A3006 RMK A01 T02020169  RH  081%=      5-min Rain = 0
KSE2 141222Z 17011G17KT 20/17 A3006 RMK A01 T02020169  RH  081%=      5-min Rain = 0
KSE2 141223Z 17011KT 20/17 A3006 RMK A01 T02020168  RH  081%=      5-min Rain = 0
KSE2 141224Z 16011G17KT 20/17 A3006 RMK A01 T02020168  RH  081%=      5-min Rain = 0
KSE2 141225Z 17011KT 20/17 A3006 RMK A01 T02020168  RH  081%=      5-min Rain = 0
KSE2 141226Z 17009KT 20/17 A3006 RMK A01 T02020168  RH  081%=      5-min Rain = 0
KSE2 141227Z 16009G15KT 20/17 A3006 RMK A01 T02020168  RH  081%=      5-min Rain = 0
KSE2 141228Z 16011KT 20/17 A3006 RMK A01 T02020168  RH  081%=      5-min Rain = 0
KSE2 141229Z 16010KT 20/17 A3006 RMK A01 T02030168  RH  080%=      5-min Rain = 0
KSE2 141230Z 17011KT 20/17 A3006 RMK A01 T02030168  RH  081%=      5-min Rain = 0
KSE2 141231Z 16010KT 20/17 A3006 RMK A01 T02030168  RH  080%=      5-min Rain = 0
KSE2 141232Z 16010KT 20/17 A3006 RMK A01 T02030168  RH  080%=      5-min Rain = 0
KSE2 141233Z 15010KT 20/17 A3006 RMK A01 T02030168  RH  080%=      5-min Rain = 0
KSE2 141234Z 16012KT 20/17 A3006 RMK A01 T02030167  RH  080%=      5-min Rain = 0
KSE2 141235Z 16009KT 20/17 A3006 RMK A01 T02040167  RH  079%=      5-min Rain = 0
KSE2 141236Z 16008G13KT 20/17 A3006 RMK A01 T02040167  RH  079%=      5-min Rain = 0
KSE2 141237Z 16012KT 21/17 A3006 RMK A01 T02050167  RH  079%=      5-min Rain = 0
KSE2 141238Z 16011G17KT 21/17 A3006 RMK A01 T02050167  RH  079%=      5-min Rain = 0
KSE2 141239Z 16007KT 21/17 A3006 RMK A01 T02050167  RH  079%=      5-min Rain = 0
KSE2 141240Z 18005KT 21/17 A3006 RMK A01 T02060168  RH  079%=      5-min Rain = 0
KSE2 141241Z 15009KT 21/17 A3006 RMK A01 T02060168  RH  079%=      5-min Rain = 0
KSE2 141242Z 16009KT 21/17 A3006 RMK A01 T02060168  RH  078%=      5-min Rain = 0
KSE2 141243Z 16011G16KT 21/17 A3006 RMK A01 T02060167  RH  078%=      5-min Rain = 0
KSE2 141244Z 17010KT 21/17 A3006 RMK A01 T02060166  RH  078%=      5-min Rain = 0
KSE2 141245Z 17011KT 21/17 A3006 RMK A01 T02070167  RH  078%=      5-min Rain = 0
KSE2 141246Z 17009G14KT 21/17 A3006 RMK A01 T02070167  RH  078%=      5-min Rain = 0
KSE2 141247Z 17009KT 21/17 A3006 RMK A01 T02070167  RH  078%=      5-min Rain = 0
KSE2 141248Z 16012G17KT 21/17 A3006 RMK A01 T02070167  RH  078%=      5-min Rain = 0
KSE2 141249Z 17010KT 21/17 A3005 RMK A01 T02070166  RH  077%=      5-min Rain = 0
KSE2 141250Z 15010KT 21/17 A3005 RMK A01 T02080167  RH  077%=      5-min Rain = 0
KSE2 141251Z 16009KT 21/17 A3005 RMK A01 T02080167  RH  077%=      5-min Rain = 0
KSE2 141252Z 16010G15KT 21/17 A3005 RMK A01 T02080167  RH  077%=      5-min Rain = 0
KSE2 141253Z 15011KT 21/17 A3006 RMK A01 T02080167  RH  077%=      5-min Rain = 0
KSE2 141254Z 17010KT 21/17 A3006 RMK A01 T02080166  RH  077%=      5-min Rain = 0
KSE2 141255Z 17011KT 21/17 A3006 RMK A01 T02080166  RH  077%=      5-min Rain = 0
KSE2 141256Z 16009KT 21/17 A3006 RMK A01 T02080166  RH  077%=      5-min Rain = 0
KSE2 141257Z 17010KT 21/17 A3006 RMK A01 T02080166  RH  077%=      5-min Rain = 0
KSE2 141258Z 17008KT 21/17 A3006 RMK A01 T02090166  RH  077%=      5-min Rain = 0
KSE2 141259Z 16010KT 21/17 A3006 RMK A01 T02090166  RH  077%=      5-min Rain = 0
KSE2 141300Z 16009KT 21/17 A3006 RMK A01 T02090166  RH  076%=      5-min Rain = 0
KSE2 141301Z 17009G14KT 21/17 A3006 RMK A01 T02090166  RH  076%=      5-min Rain = 0
KSE2 141302Z 18010KT 21/17 A3006 RMK A01 T02100166  RH  076%=      5-min Rain = 0
KSE2 141303Z 17010G15KT 21/17 A3006 RMK A01 T02100166  RH  076%=      5-min Rain = 0
KSE2 141304Z 17009KT 21/17 A3006 RMK A01 T02110166  RH  076%=      5-min Rain = 0
KSE2 141305Z 17009KT 21/17 A3006 RMK A01 T02110166  RH  075%=      5-min Rain = 0
KSE2 141306Z 17012KT 21/17 A3006 RMK A01 T02120166  RH  075%=      5-min Rain = 0
KSE2 141307Z 17011G16KT 21/17 A3006 RMK A01 T02130166  RH  075%=      5-min Rain = 0
KSE2 141308Z 17011KT 21/17 A3006 RMK A01 T02130165  RH  074%=      5-min Rain = 0
KSE2 141309Z 16011KT 21/17 A3006 RMK A01 T02130165  RH  074%=      5-min Rain = 0
KSE2 141310Z 17012KT 21/17 A3006 RMK A01 T02130165  RH  074%=      5-min Rain = 0
KSE2 141311Z 16010KT 21/17 A3006 RMK A01 T02130165  RH  074%=      5-min Rain = 0
KSE2 141312Z 16010KT 21/17 A3006 RMK A01 T02140165  RH  074%=      5-min Rain = 0
KSE2 141313Z 16011KT 21/17 A3006 RMK A01 T02140165  RH  074%=      5-min Rain = 0
KSE2 141314Z 16009KT 21/17 A3007 RMK A01 T02140166  RH  074%=      5-min Rain = 0
KSE2 141315Z 17007KT 21/17 A3007 RMK A01 T02140166  RH  074%=      5-min Rain = 0
KSE2 141316Z 18010KT 22/17 A3007 RMK A01 T02150167  RH  074%=      5-min Rain = 0
KSE2 141317Z 18008KT 22/17 A3007 RMK A01 T02160167  RH  074%=      5-min Rain = 0
KSE2 141318Z 17006KT 22/17 A3007 RMK A01 T02170169  RH  074%=      5-min Rain = 0
KSE2 141319Z 18011KT 22/17 A3007 RMK A01 T02180168  RH  073%=      5-min Rain = 0
KSE2 141320Z 18012KT 22/17 A3007 RMK A01 T02180166  RH  072%=      5-min Rain = 0
KSE2 141321Z 18010KT 22/17 A3007 RMK A01 T02180165  RH  072%=      5-min Rain = 0
KSE2 141322Z 17009KT 22/17 A3007 RMK A01 T02180166  RH  073%=      5-min Rain = 0
KSE2 141323Z 17008KT 22/17 A3007 RMK A01 T02180167  RH  073%=      5-min Rain = 0
KSE2 141324Z 18006KT 22/17 A3007 RMK A01 T02180168  RH  073%=      5-min Rain = 0
KSE2 141325Z 18007KT 22/17 A3007 RMK A01 T02190168  RH  073%=      5-min Rain = 0
KSE2 141326Z 18010KT 22/17 A3007 RMK A01 T02200168  RH  072%=      5-min Rain = 0
KSE2 141327Z 18010KT 22/17 A3007 RMK A01 T02200166  RH  072%=      5-min Rain = 0
KSE2 141328Z 18007KT 22/17 A3007 RMK A01 T02200168  RH  072%=      5-min Rain = 0
KSE2 141329Z 18007KT 22/17 A3007 RMK A01 T02210170  RH  073%=      5-min Rain = 0
KSE2 141330Z 17008KT 22/17 A3007 RMK A01 T02220169  RH  072%=      5-min Rain = 0
KSE2 141331Z 18010KT 22/17 A3007 RMK A01 T02220168  RH  071%=      5-min Rain = 0
KSE2 141332Z 17010KT 22/17 A3007 RMK A01 T02220167  RH  071%=      5-min Rain = 0
KSE2 141333Z 16007KT 22/17 A3007 RMK A01 T02210169  RH  072%=      5-min Rain = 0
KSE2 141334Z 16008KT 22/17 A3007 RMK A01 T02220168  RH  072%=      5-min Rain = 0
KSE2 141335Z 16010KT 22/17 A3007 RMK A01 T02220167  RH  071%=      5-min Rain = 0
KSE2 141336Z 17011KT 22/17 A3007 RMK A01 T02220167  RH  071%=      5-min Rain = 0
KSE2 141337Z 18010KT 22/17 A3007 RMK A01 T02220166  RH  070%=      5-min Rain = 0
KSE2 141338Z 18008KT 22/17 A3007 RMK A01 T02220166  RH  070%=      5-min Rain = 0
KSE2 141339Z 17010KT 22/17 A3007 RMK A01 T02230167  RH  071%=      5-min Rain = 0
KSE2 141340Z 17008KT 22/17 A3007 RMK A01 T02240168  RH  071%=      5-min Rain = 0
KSE2 141341Z 18010KT 23/17 A3008 RMK A01 T02250168  RH  070%=      5-min Rain = 0
KSE2 141342Z 18011KT 23/17 A3008 RMK A01 T02250168  RH  070%=      5-min Rain = 0
KSE2 141343Z 18012KT 23/17 A3008 RMK A01 T02250168  RH  070%=      5-min Rain = 0
KSE2 141344Z 17012KT 23/17 A3008 RMK A01 T02260166  RH  069%=      5-min Rain = 0
KSE2 141345Z 18011KT 23/17 A3008 RMK A01 T02250166  RH  069%=      5-min Rain = 0
KSE2 141346Z 18009KT 23/17 A3008 RMK A01 T02250167  RH  069%=      5-min Rain = 0
KSE2 141347Z 18008KT 23/17 A3008 RMK A01 T02260169  RH  070%=      5-min Rain = 0
KSE2 141348Z 18011KT 23/17 A3008 RMK A01 T02270169  RH  070%=      5-min Rain = 0
KSE2 141349Z 18011G17KT 23/17 A3008 RMK A01 T02270168  RH  069%=      5-min Rain = 0
KSE2 141350Z 18012KT 23/17 A3008 RMK A01 T02260167  RH  069%=      5-min Rain = 0
KSE2 141351Z 18011G16KT 23/17 A3007 RMK A01 T02260166  RH  069%=      5-min Rain = 0
KSE2 141352Z 18012KT 23/17 A3007 RMK A01 T02250166  RH  069%=      5-min Rain = 0
KSE2 141353Z 17010KT 23/17 A3007 RMK A01 T02250167  RH  070%=      5-min Rain = 0
KSE2 141354Z 17012G18KT 23/17 A3007 RMK A01 T02250167  RH  070%=      5-min Rain = 0
KSE2 141355Z 17013KT 23/17 A3007 RMK A01 T02260166  RH  069%=      5-min Rain = 0
KSE2 141356Z 17011G16KT 23/17 A3007 RMK A01 T02260166  RH  069%=      5-min Rain = 0
KSE2 141357Z 17010G15KT 23/17 A3007 RMK A01 T02280167  RH  069%=      5-min Rain = 0
KSE2 141358Z 15010G16KT 23/17 A3007 RMK A01 T02290169  RH  069%=      5-min Rain = 0
KSE2 141359Z 15012KT 23/17 A3007 RMK A01 T02300166  RH  067%=      5-min Rain = 0
KSE2 141400Z 16012G17KT 23/17 A3007 RMK A01 T02300168  RH  068%=      5-min Rain = 0
KSE2 141401Z 16012G18KT 23/17 A3007 RMK A01 T02320168  RH  067%=      5-min Rain = 0
KSE2 141402Z 17013KT 23/17 A3007 RMK A01 T02320165  RH  066%=      5-min Rain = 0
KSE2 141403Z 16015KT 23/17 A3007 RMK A01 T02320165  RH  066%=      5-min Rain = 0
KSE2 141404Z 17011KT 23/17 A3007 RMK A01 T02320166  RH  066%=      5-min Rain = 0
KSE2 141405Z 16010G15KT 23/17 A3007 RMK A01 T02320168  RH  067%=      5-min Rain = 0
KSE2 141406Z 16015KT 23/17 A3007 RMK A01 T02330166  RH  066%=      5-min Rain = 0
KSE2 141407Z 17013G18KT 23/17 A3007 RMK A01 T02330166  RH  066%=      5-min Rain = 0
KSE2 141408Z 17014G21KT 23/17 A3007 RMK A01 T02330165  RH  065%=      5-min Rain = 0
KSE2 141409Z 15013KT 23/17 A3007 RMK A01 T02330165  RH  065%=      5-min Rain = 0
KSE2 141410Z 16012KT 23/17 A3007 RMK A01 T02340165  RH  065%=      5-min Rain = 0
KSE2 141411Z 17011KT 23/17 A3007 RMK A01 T02340166  RH  065%=      5-min Rain = 0
KSE2 141412Z 17012G18KT 24/17 A3007 RMK A01 T02360167  RH  065%=      5-min Rain = 0
KSE2 141413Z 16014KT 24/17 A3007 RMK A01 T02360165  RH  064%=      5-min Rain = 0
KSE2 141414Z 16013KT 24/17 A3008 RMK A01 T02360167  RH  065%=      5-min Rain = 0
KSE2 141415Z 18012KT 24/17 A3008 RMK A01 T02360167  RH  065%=      5-min Rain = 0
KSE2 141416Z 18014KT 24/17 A3008 RMK A01 T02360165  RH  064%=      5-min Rain = 0
KSE2 141417Z 17012G18KT 24/17 A3008 RMK A01 T02360167  RH  065%=      5-min Rain = 0
KSE2 141418Z 17013KT 24/17 A3008 RMK A01 T02370167  RH  065%=      5-min Rain = 0
KSE2 141419Z 17013KT 24/17 A3008 RMK A01 T02380166  RH  064%=      5-min Rain = 0
KSE2 141420Z 17010G19KT 24/17 A3008 RMK A01 T02380167  RH  064%=      5-min Rain = 0
KSE2 141421Z 19012KT 24/17 A3008 RMK A01 T02390169  RH  065%=      5-min Rain = 0
KSE2 141422Z 18016KT 24/17 A3008 RMK A01 T02400165  RH  063%=      5-min Rain = 0
KSE2 141423Z 18007G14KT 24/17 A3008 RMK A01 T02390167  RH  064%=      5-min Rain = 0
KSE2 141424Z 18013G19KT 24/17 A3008 RMK A01 T02400168  RH  064%=      5-min Rain = 0
KSE2 141425Z 19014KT 24/16 A3008 RMK A01 T02410164  RH  062%=      5-min Rain = 0
KSE2 141426Z 18015KT 24/17 A3008 RMK A01 T02390165  RH  063%=      5-min Rain = 0
KSE2 141427Z 17012G17KT 24/17 A3008 RMK A01 T02390166  RH  064%=      5-min Rain = 0
KSE2 141428Z 17012G17KT 24/17 A3008 RMK A01 T02390166  RH  064%=      5-min Rain = 0
KSE2 141429Z 18011G17KT 24/17 A3008 RMK A01 T02400166  RH  063%=      5-min Rain = 0
KSE2 141430Z 18010KT 24/17 A3008 RMK A01 T02400168  RH  064%=      5-min Rain = 0
KSE2 141431Z 17006KT 24/17 A3008 RMK A01 T02420169  RH  064%=      5-min Rain = 0
KSE2 141432Z 17009G14KT 24/17 A3008 RMK A01 T02430171  RH  064%=      5-min Rain = 0
KSE2 141433Z 18007KT 25/17 A3008 RMK A01 T02450171  RH  063%=      5-min Rain = 0
KSE2 141434Z 16008G13KT 25/17 A3008 RMK A01 T02450172  RH  064%=      5-min Rain = 0
KSE2 141435Z 16011KT 25/17 A3008 RMK A01 T02460170  RH  063%=      5-min Rain = 0
KSE2 141436Z 16013KT 25/17 A3008 RMK A01 T02450168  RH  062%=      5-min Rain = 0
KSE2 141437Z 16012G18KT 24/17 A3008 RMK A01 T02440168  RH  063%=      5-min Rain = 0
KSE2 141438Z 15015KT 24/16 A3008 RMK A01 T02430164  RH  061%=      5-min Rain = 0
KSE2 141439Z 17013G18KT 24/16 A3008 RMK A01 T02400164  RH  062%=      5-min Rain = 0
KSE2 141440Z 17011KT 24/17 A3008 RMK A01 T02400165  RH  063%=      5-min Rain = 0
KSE2 141441Z 17013KT 24/17 A3008 RMK A01 T02390165  RH  063%=      5-min Rain = 0
KSE2 141442Z 17014G19KT 24/17 A3008 RMK A01 T02400166  RH  063%=      5-min Rain = 0
KSE2 141443Z 18014KT 24/17 A3008 RMK A01 T02400166  RH  063%=      5-min Rain = 0
KSE2 141444Z 18013KT 24/17 A3008 RMK A01 T02400165  RH  063%=      5-min Rain = 0
KSE2 141445Z 17011KT 24/17 A3007 RMK A01 T02410167  RH  063%=      5-min Rain = 0
KSE2 141446Z 18011KT 24/17 A3007 RMK A01 T02420168  RH  063%=      5-min Rain = 0
KSE2 141447Z 17009KT 24/17 A3007 RMK A01 T02430168  RH  063%=      5-min Rain = 0
KSE2 141448Z 18013G18KT 24/17 A3007 RMK A01 T02430168  RH  063%=      5-min Rain = 0
KSE2 141449Z 18013G18KT 24/17 A3007 RMK A01 T02440166  RH  062%=      5-min Rain = 0
KSE2 141450Z 17011G17KT 24/17 A3008 RMK A01 T02430166  RH  062%=      5-min Rain = 0
KSE2 141451Z 16010KT 24/17 A3008 RMK A01 T02440168  RH  063%=      5-min Rain = 0
KSE2 141452Z 17009KT 25/17 A3008 RMK A01 T02460169  RH  062%=      5-min Rain = 0
KSE2 141453Z 16010KT 25/17 A3008 RMK A01 T02480171  RH  062%=      5-min Rain = 0
KSE2 141454Z 18012G20KT 25/17 A3008 RMK A01 T02490169  RH  061%=      5-min Rain = 0
KSE2 141455Z 16013KT 25/17 A3007 RMK A01 T02490167  RH  060%=      5-min Rain = 0
KSE2 141456Z 17016G23KT 25/17 A3008 RMK A01 T02490166  RH  060%=      5-min Rain = 0
KSE2 141457Z 17015KT 25/16 A3008 RMK A01 T02480161  RH  058%=      5-min Rain = 0
KSE2 141458Z 16014G20KT 25/16 A3007 RMK A01 T02460161  RH  059%=      5-min Rain = 0
KSE2 141459Z 17017G23KT 25/16 A3007 RMK A01 T02460162  RH  060%=      5-min Rain = 0
KSE2 141500Z 16013G19KT 25/16 A3007 RMK A01 T02460163  RH  060%=      5-min Rain = 0
KSE2 141501Z 17017G22KT 25/16 A3007 RMK A01 T02460162  RH  059%=      5-min Rain = 0
KSE2 141502Z 16016G23KT 25/16 A3007 RMK A01 T02460164  RH  060%=      5-min Rain = 0
KSE2 141503Z 16019KT 25/16 A3007 RMK A01 T02460162  RH  059%=      5-min Rain = 0
KSE2 141504Z 16015KT 25/16 A3007 RMK A01 T02460162  RH  059%=      5-min Rain = 0
KSE2 141505Z 16019G24KT 25/16 A3007 RMK A01 T02460161  RH  059%=      5-min Rain = 0
KSE2 141506Z 16014G20KT 25/16 A3007 RMK A01 T02450161  RH  059%=      5-min Rain = 0
KSE2 141507Z 16013G18KT 25/17 A3007 RMK A01 T02460165  RH  061%=      5-min Rain = 0
KSE2 141508Z 15013G19KT 25/17 A3007 RMK A01 T02480165  RH  060%=      5-min Rain = 0
KSE2 141509Z 16011G16KT 25/17 A3007 RMK A01 T02480165  RH  060%=      5-min Rain = 0
KSE2 141510Z 15014KT 25/16 A3007 RMK A01 T02490163  RH  059%=      5-min Rain = 0
KSE2 141511Z 17014G21KT 25/17 A3007 RMK A01 T02490165  RH  060%=      5-min Rain = 0
KSE2 141512Z 17017KT 25/16 A3007 RMK A01 T02480161  RH  058%=      5-min Rain = 0
KSE2 141513Z 17014G19KT 25/16 A3007 RMK A01 T02470163  RH  059%=      5-min Rain = 0
KSE2 141514Z 17018KT 25/16 A3007 RMK A01 T02480163  RH  059%=      5-min Rain = 0
KSE2 141515Z 17015G23KT 25/16 A3007 RMK A01 T02480164  RH  059%=      5-min Rain = 0
KSE2 141516Z 17013KT 25/17 A3007 RMK A01 T02480165  RH  060%=      5-min Rain = 0
KSE2 141517Z 17010KT 25/17 A3006 RMK A01 T02490165  RH  060%=      5-min Rain = 0
KSE2 141518Z 17012G18KT 25/17 A3007 RMK A01 T02500168  RH  060%=      5-min Rain = 0
KSE2 141519Z 16013KT 25/17 A3006 RMK A01 T02520168  RH  059%=      5-min Rain = 0
KSE2 141520Z 16016G22KT 25/16 A3006 RMK A01 T02520164  RH  058%=      5-min Rain = 0
KSE2 141521Z 16014KT 25/16 A3006 RMK A01 T02520164  RH  058%=      5-min Rain = 0
KSE2 141522Z 16013G20KT 25/17 A3006 RMK A01 T02510167  RH  059%=      5-min Rain = 0
KSE2 141523Z 16016KT 25/16 A3006 RMK A01 T02520164  RH  058%=      5-min Rain = 0
KSE2 141524Z 17013KT 25/17 A3007 RMK A01 T02520165  RH  058%=      5-min Rain = 0
KSE2 141525Z 16013KT 25/17 A3007 RMK A01 T02520166  RH  059%=      5-min Rain = 0
KSE2 141526Z 16011KT 25/17 A3007 RMK A01 T02530167  RH  059%=      5-min Rain = 0
KSE2 141527Z 17011KT 25/17 A3007 RMK A01 T02540168  RH  059%=      5-min Rain = 0
KSE2 141528Z 18015KT 26/17 A3006 RMK A01 T02550167  RH  058%=      5-min Rain = 0
KSE2 141529Z 17008G13KT 26/17 A3007 RMK A01 T02550168  RH  059%=      5-min Rain = 0
KSE2 141530Z 17011G17KT 26/17 A3007 RMK A01 T02560171  RH  059%=      5-min Rain = 0
KSE2 141531Z 18012G19KT 26/17 A3007 RMK A01 T02580170  RH  058%=      5-min Rain = 0
KSE2 141532Z 17015G21KT 26/17 A3007 RMK A01 T02580165  RH  056%=      5-min Rain = 0
KSE2 141533Z 18013G19KT 26/16 A3007 RMK A01 T02570164  RH  057%=      5-min Rain = 0
KSE2 141534Z 17015G22KT 26/16 A3007 RMK A01 T02560164  RH  057%=      5-min Rain = 0
KSE2 141535Z 17013G19KT 26/16 A3007 RMK A01 T02560164  RH  057%=      5-min Rain = 0
KSE2 141536Z 17017KT 26/16 A3007 RMK A01 T02560163  RH  057%=      5-min Rain = 0
KSE2 141537Z 16013G18KT 26/16 A3007 RMK A01 T02550164  RH  057%=      5-min Rain = 0
KSE2 141538Z 15014G19KT 26/17 A3006 RMK A01 T02560165  RH  057%=      5-min Rain = 0
KSE2 141539Z 16013KT 26/17 A3006 RMK A01 T02560166  RH  057%=      5-min Rain = 0
KSE2 141540Z 16009G16KT 26/17 A3006 RMK A01 T02570165  RH  057%=      5-min Rain = 0
KSE2 141541Z 15009KT 26/17 A3006 RMK A01 T02590172  RH  059%=      5-min Rain = 0
KSE2 141542Z 17010KT 26/17 A3006 RMK A01 T02610171  RH  058%=      5-min Rain = 0
KSE2 141543Z 17015G25KT 26/17 A3006 RMK A01 T02620169  RH  056%=      5-min Rain = 0
KSE2 141544Z 16015G20KT 26/16 A3006 RMK A01 T02620164  RH  055%=      5-min Rain = 0
KSE2 141545Z 17015KT 26/17 A3006 RMK A01 T02610165  RH  055%=      5-min Rain = 0
KSE2 141546Z 18018KT 26/16 A3006 RMK A01 T02610162  RH  055%=      5-min Rain = 0
KSE2 141547Z 18014G21KT 26/17 A3006 RMK A01 T02600165  RH  056%=      5-min Rain = 0
KSE2 141548Z 17015G20KT 26/16 A3006 RMK A01 T02610164  RH  055%=      5-min Rain = 0
KSE2 141549Z 18015G20KT 26/16 A3006 RMK A01 T02620163  RH  055%=      5-min Rain = 0
KSE2 141550Z 18012KT 26/16 A3006 RMK A01 T02610163  RH  055%=      5-min Rain = 0
KSE2 141551Z 17012G17KT 26/16 A3006 RMK A01 T02610164  RH  055%=      5-min Rain = 0
KSE2 141552Z 16013G19KT 26/17 A3006 RMK A01 T02610165  RH  055%=      5-min Rain = 0
KSE2 141553Z 16014G23KT 26/17 A3006 RMK A01 T02610165  RH  055%=      5-min Rain = 0
KSE2 141554Z 17013G19KT 26/16 A3006 RMK A01 T02610163  RH  055%=      5-min Rain = 0
KSE2 141555Z 18016KT 26/17 A3006 RMK A01 T02610165  RH  055%=      5-min Rain = 0
KSE2 141556Z 18015G20KT 26/16 A3006 RMK A01 T02620163  RH  055%=      5-min Rain = 0
KSE2 141557Z 18015G22KT 26/16 A3006 RMK A01 T02620163  RH  054%=      5-min Rain = 0
KSE2 141558Z 18013G21KT 26/16 A3006 RMK A01 T02620163  RH  054%=      5-min Rain = 0
KSE2 141559Z 18016KT 26/16 A3006 RMK A01 T02640164  RH  054%=      5-min Rain = 0
KSE2 141600Z 19015G21KT 26/16 A3006 RMK A01 T02640163  RH  054%=      5-min Rain = 0
KSE2 141601Z 18014G19KT 26/16 A3006 RMK A01 T02640162  RH  054%=      5-min Rain = 0
KSE2 141602Z 18012G19KT 27/17 A3006 RMK A01 T02650166  RH  054%=      5-min Rain = 0
KSE2 141603Z 19017KT 27/17 A3006 RMK A01 T02670165  RH  053%=      5-min Rain = 0
KSE2 141604Z 18018G25KT 27/16 A3006 RMK A01 T02670161  RH  052%=      5-min Rain = 0
KSE2 141605Z 19015G21KT 27/16 A3007 RMK A01 T02660162  RH  053%=      5-min Rain = 0
KSE2 141606Z 18017KT 27/16 A3007 RMK A01 T02660161  RH  053%=      5-min Rain = 0
KSE2 141607Z 17015KT 27/16 A3007 RMK A01 T02650162  RH  053%=      5-min Rain = 0
KSE2 141608Z 17016KT 27/16 A3007 RMK A01 T02660161  RH  053%=      5-min Rain = 0
KSE2 141609Z 17014G20KT 27/16 A3007 RMK A01 T02660160  RH  052%=      5-min Rain = 0
KSE2 141610Z 18012G17KT 27/16 A3007 RMK A01 T02660161  RH  052%=      5-min Rain = 0
KSE2 141611Z 18016G22KT 27/16 A3007 RMK A01 T02670160  RH  052%=      5-min Rain = 0
KSE2 141612Z 17014G19KT 27/16 A3007 RMK A01 T02670161  RH  052%=      5-min Rain = 0
KSE2 141613Z 17014G20KT 27/16 A3007 RMK A01 T02680162  RH  052%=      5-min Rain = 0
KSE2 141614Z 17011G16KT 27/16 A3007 RMK A01 T02690164  RH  053%=      5-min Rain = 0
KSE2 141615Z 17013KT 27/16 A3007 RMK A01 T02700164  RH  052%=      5-min Rain = 0
KSE2 141616Z 18010G17KT 27/17 A3007 RMK A01 T02700167  RH  053%=      5-min Rain = 0
KSE2 141617Z 19013G19KT 27/17 A3007 RMK A01 T02710167  RH  053%=      5-min Rain = 0
KSE2 141618Z 19014G19KT 27/16 A3007 RMK A01 T02710163  RH  052%=      5-min Rain = 0
KSE2 141619Z 19011G18KT 27/16 A3007 RMK A01 T02710164  RH  052%=      5-min Rain = 0
KSE2 141620Z 18016G22KT 27/16 A3007 RMK A01 T02700161  RH  051%=      5-min Rain = 0
KSE2 141621Z 19017KT 27/16 A3007 RMK A01 T02700160  RH  051%=      5-min Rain = 0
KSE2 141622Z 19015G20KT 27/16 A3006 RMK A01 T02690162  RH  052%=      5-min Rain = 0
KSE2 141623Z 18013G18KT 27/16 A3006 RMK A01 T02690163  RH  052%=      5-min Rain = 0
KSE2 141624Z 20014G22KT 27/16 A3006 RMK A01 T02690160  RH  051%=      5-min Rain = 0
KSE2 141625Z 19012G19KT 27/16 A3006 RMK A01 T02690164  RH  053%=      5-min Rain = 0
KSE2 141626Z 18016KT 27/16 A3006 RMK A01 T02700160  RH  051%=      5-min Rain = 0
KSE2 141627Z 18015G25KT 27/16 A3007 RMK A01 T02700159  RH  051%=      5-min Rain = 0
KSE2 141628Z 19013G18KT 27/16 A3006 RMK A01 T02700162  RH  052%=      5-min Rain = 0
KSE2 141629Z 19015G21KT 27/16 A3007 RMK A01 T02700163  RH  052%=      5-min Rain = 0
KSE2 141630Z 19015G20KT 27/16 A3006 RMK A01 T02710163  RH  051%=      5-min Rain = 0
KSE2 141631Z 19014G19KT 27/16 A3006 RMK A01 T02710161  RH  051%=      5-min Rain = 0
KSE2 141632Z 18015G22KT 27/16 A3006 RMK A01 T02700162  RH  051%=      5-min Rain = 0
KSE2 141633Z 17013G18KT 27/16 A3007 RMK A01 T02700161  RH  051%=      5-min Rain = 0
KSE2 141634Z 18012KT 27/16 A3007 RMK A01 T02700160  RH  051%=      5-min Rain = 0
KSE2 141635Z 19011KT 27/16 A3006 RMK A01 T02700162  RH  052%=      5-min Rain = 0
KSE2 141636Z 18012G18KT 27/16 A3007 RMK A01 T02700163  RH  052%=      5-min Rain = 0
KSE2 141637Z 18018KT 27/16 A3007 RMK A01 T02700160  RH  051%=      5-min Rain = 0
KSE2 141638Z 20015G21KT 27/16 A3007 RMK A01 T02680160  RH  051%=      5-min Rain = 0
KSE2 141639Z 18013G18KT 27/16 A3007 RMK A01 T02680160  RH  052%=      5-min Rain = 0
KSE2 141640Z 19014G20KT 27/16 A3006 RMK A01 T02680161  RH  052%=      5-min Rain = 0
KSE2 141641Z 19013KT 27/16 A3006 RMK A01 T02680160  RH  051%=      5-min Rain = 0
KSE2 141642Z 18012KT 27/16 A3006 RMK A01 T02680159  RH  051%=      5-min Rain = 0
KSE2 141643Z 18013G18KT 27/16 A3006 RMK A01 T02690161  RH  052%=      5-min Rain = 0
KSE2 141644Z 19015KT 27/16 A3006 RMK A01 T02690159  RH  051%=      5-min Rain = 0
KSE2 141645Z 19013KT 27/16 A3006 RMK A01 T02690160  RH  051%=      5-min Rain = 0
KSE2 141646Z 18016G21KT 27/16 A3006 RMK A01 T02680157  RH  051%=      5-min Rain = 0
KSE2 141647Z 19014G19KT 27/16 A3006 RMK A01 T02690157  RH  050%=      5-min Rain = 0
KSE2 141648Z 19013KT 27/16 A3006 RMK A01 T02690158  RH  051%=      5-min Rain = 0
KSE2 141649Z 18012G17KT 27/16 A3006 RMK A01 T02700162  RH  052%=      5-min Rain = 0
KSE2 141650Z 19013KT 27/16 A3006 RMK A01 T02720162  RH  051%=      5-min Rain = 0
KSE2 141651Z 17013KT 27/16 A3006 RMK A01 T02730163  RH  051%=      5-min Rain = 0
KSE2 141652Z 17012G18KT 27/16 A3006 RMK A01 T02740164  RH  051%=      5-min Rain = 0
KSE2 141653Z 18010KT 28/17 A3006 RMK A01 T02750165  RH  051%=      5-min Rain = 0
KSE2 141654Z 18012G18KT 28/17 A3006 RMK A01 T02760166  RH  051%=      5-min Rain = 0
KSE2 141655Z 19013G18KT 28/16 A3006 RMK A01 T02770164  RH  050%=      5-min Rain = 0
KSE2 141656Z 17014G20KT 28/17 A3006 RMK A01 T02760166  RH  051%=      5-min Rain = 0
KSE2 141657Z 18016KT 28/16 A3006 RMK A01 T02750162  RH  050%=      5-min Rain = 0
KSE2 141658Z 17013G18KT 27/16 A3006 RMK A01 T02740163  RH  051%=      5-min Rain = 0
KSE2 141659Z 17013KT 27/16 A3006 RMK A01 T02730161  RH  050%=      5-min Rain = 0
KSE2 141700Z 18012G19KT 27/17 A3006 RMK A01 T02730165  RH  052%=      5-min Rain = 0
KSE2 141701Z 18012G18KT 27/16 A3006 RMK A01 T02730164  RH  051%=      5-min Rain = 0
KSE2 141702Z 19013KT 27/17 A3006 RMK A01 T02730165  RH  052%=      5-min Rain = 0
KSE2 141703Z 19013KT 27/16 A3006 RMK A01 T02730164  RH  051%=      5-min Rain = 0
KSE2 141704Z 17010KT 27/17 A3006 RMK A01 T02720168  RH  053%=      5-min Rain = 0
KSE2 141705Z 16015G20KT 27/17 A3006 RMK A01 T02740168  RH  052%=      5-min Rain = 0
KSE2 141706Z 16016KT 27/16 A3006 RMK A01 T02740163  RH  051%=      5-min Rain = 0
KSE2 141707Z 16013KT 27/16 A3006 RMK A01 T02730163  RH  051%=      5-min Rain = 0
KSE2 141708Z 15015G20KT 27/16 A3006 RMK A01 T02730163  RH  051%=      5-min Rain = 0
KSE2 141709Z 17013G21KT 27/16 A3006 RMK A01 T02720161  RH  050%=      5-min Rain = 0
KSE2 141710Z 18015G20KT 27/16 A3006 RMK A01 T02720163  RH  051%=      5-min Rain = 0
KSE2 141711Z 18012G18KT 27/16 A3006 RMK A01 T02720161  RH  051%=      5-min Rain = 0
KSE2 141712Z 17013KT 27/16 A3006 RMK A01 T02720161  RH  051%=      5-min Rain = 0
KSE2 141713Z 17012KT 27/16 A3005 RMK A01 T02720164  RH  052%=      5-min Rain = 0
KSE2 141714Z 18015KT 27/17 A3006 RMK A01 T02730166  RH  052%=      5-min Rain = 0
KSE2 141715Z 18012KT 27/16 A3006 RMK A01 T02740164  RH  051%=      5-min Rain = 0
KSE2 141716Z 19013G18KT 28/17 A3006 RMK A01 T02750165  RH  051%=      5-min Rain = 0
KSE2 141717Z 18013G18KT 28/17 A3006 RMK A01 T02760165  RH  051%=      5-min Rain = 0
KSE2 141718Z 17009KT 28/17 A3006 RMK A01 T02780167  RH  051%=      5-min Rain = 0
KSE2 141719Z 17012G17KT 28/17 A3006 RMK A01 T02800168  RH  051%=      5-min Rain = 0
KSE2 141720Z 17014KT 28/17 A3006 RMK A01 T02820165  RH  049%=      5-min Rain = 0
KSE2 141721Z 17014KT 28/17 A3006 RMK A01 T02820167  RH  050%=      5-min Rain = 0
KSE2 141722Z 17014G22KT 28/17 A3006 RMK A01 T02820167  RH  050%=      5-min Rain = 0
KSE2 141723Z 17014KT 28/16 A3005 RMK A01 T02830164  RH  049%=      5-min Rain = 0
KSE2 141724Z 16011KT 28/17 A3005 RMK A01 T02820166  RH  050%=      5-min Rain = 0
KSE2 141725Z 17010KT 28/17 A3005 RMK A01 T02820168  RH  050%=      5-min Rain = 0
KSE2 141726Z 16012G17KT 28/17 A3005 RMK A01 T02820170  RH  051%=      5-min Rain = 0
KSE2 141727Z 16014KT 28/16 A3005 RMK A01 T02820163  RH  048%=      5-min Rain = 0
KSE2 141728Z 16015G20KT 28/16 A3005 RMK A01 T02800161  RH  048%=      5-min Rain = 0
KSE2 141729Z 17011G18KT 28/17 A3005 RMK A01 T02800165  RH  050%=      5-min Rain = 0
KSE2 141730Z 17015KT 28/16 A3005 RMK A01 T02810162  RH  048%=      5-min Rain = 0
KSE2 141731Z 17013KT 28/16 A3005 RMK A01 T02820164  RH  049%=      5-min Rain = 0
KSE2 141732Z 17015KT 28/16 A3005 RMK A01 T02810161  RH  048%=      5-min Rain = 0
KSE2 141733Z 16015G22KT 28/16 A3005 RMK A01 T02810161  RH  048%=      5-min Rain = 0
KSE2 141734Z 17017G22KT 28/16 A3005 RMK A01 T02800159  RH  048%=      5-min Rain = 0
KSE2 141735Z 17016G22KT 28/16 A3005 RMK A01 T02780157  RH  048%=      5-min Rain = 0
KSE2 141736Z 16014KT 28/16 A3005 RMK A01 T02770158  RH  048%=      5-min Rain = 0
KSE2 141737Z 18013G19KT 28/16 A3005 RMK A01 T02770161  RH  049%=      5-min Rain = 0
KSE2 141738Z 17015KT 28/16 A3005 RMK A01 T02770157  RH  048%=      5-min Rain = 0
KSE2 141739Z 17015G20KT 28/16 A3005 RMK A01 T02760159  RH  049%=      5-min Rain = 0
KSE2 141740Z 18010G18KT 28/17 A3005 RMK A01 T02760165  RH  051%=      5-min Rain = 0
KSE2 141741Z 18012KT 28/16 A3005 RMK A01 T02790163  RH  049%=      5-min Rain = 0
KSE2 141742Z 18011KT 28/16 A3005 RMK A01 T02800163  RH  049%=      5-min Rain = 0
KSE2 141743Z 19013G18KT 28/16 A3005 RMK A01 T02800163  RH  049%=      5-min Rain = 0
KSE2 141744Z 19011G16KT 28/17 A3005 RMK A01 T02810165  RH  049%=      5-min Rain = 0
KSE2 141745Z 17011KT 28/17 A3005 RMK A01 T02830168  RH  050%=      5-min Rain = 0
KSE2 141746Z 17012KT 28/17 A3005 RMK A01 T02840165  RH  048%=      5-min Rain = 0
KSE2 141747Z 19016KT 28/17 A3005 RMK A01 T02840166  RH  049%=      5-min Rain = 0
KSE2 141748Z 18015G20KT 28/17 A3005 RMK A01 T02840165  RH  049%=      5-min Rain = 0
KSE2 141749Z 17014G19KT 28/17 A3005 RMK A01 T02830166  RH  049%=      5-min Rain = 0
KSE2 141750Z 17011G19KT 28/16 A3005 RMK A01 T02830164  RH  048%=      5-min Rain = 0
KSE2 141751Z 17008G13KT 28/17 A3005 RMK A01 T02830166  RH  049%=      5-min Rain = 0
KSE2 141752Z 20013G19KT 28/17 A3005 RMK A01 T02830169  RH  050%=      5-min Rain = 0
KSE2 141753Z 19014G19KT 28/17 A3005 RMK A01 T02840165  RH  049%=      5-min Rain = 0
KSE2 141754Z 19016G21KT 28/16 A3004 RMK A01 T02820164  RH  049%=      5-min Rain = 0
KSE2 141755Z 18011G16KT 28/16 A3005 RMK A01 T02810164  RH  049%=      5-min Rain = 0
KSE2 141756Z 18012G17KT 28/17 A3005 RMK A01 T02810167  RH  050%=      5-min Rain = 0
KSE2 141757Z 17012G18KT 28/17 A3005 RMK A01 T02820165  RH  049%=      5-min Rain = 0
KSE2 141758Z 19013KT 28/17 A3004 RMK A01 T02810165  RH  049%=      5-min Rain = 0
KSE2 141759Z 20011KT 28/17 A3004 RMK A01 T02810166  RH  050%=      5-min Rain = 0
KSE2 141800Z 19011KT 28/17 A3004 RMK A01 T02810166  RH  050%=      5-min Rain = 0
KSE2 141801Z 19012KT 28/17 A3004 RMK A01 T02810166  RH  050%=      5-min Rain = 0
KSE2 141802Z 18012G18KT 28/17 A3004 RMK A01 T02810166  RH  050%=      5-min Rain = 0
KSE2 141803Z 18014G20KT 28/17 A3004 RMK A01 T02820165  RH  049%=      5-min Rain = 0
KSE2 141804Z 18011KT 28/16 A3004 RMK A01 T02810164  RH  049%=      5-min Rain = 0
KSE2 141805Z 19008G13KT 28/17 A3004 RMK A01 T02800168  RH  050%=      5-min Rain = 0
KSE2 141806Z 18010KT 28/17 A3004 RMK A01 T02810167  RH  050%=      5-min Rain = 0
KSE2 141807Z 15011G17KT 28/17 A3004 RMK A01 T02820171  RH  051%=      5-min Rain = 0
KSE2 141808Z 16014KT 28/16 A3004 RMK A01 T02820164  RH  049%=      5-min Rain = 0
KSE2 141809Z 15011KT 28/17 A3004 RMK A01 T02820166  RH  049%=      5-min Rain = 0
KSE2 141810Z 15012G18KT 28/16 A3004 RMK A01 T02800164  RH  049%=      5-min Rain = 0
KSE2 141811Z 15010G15KT 28/17 A3004 RMK A01 T02790165  RH  050%=      5-min Rain = 0
KSE2 141812Z 16009KT 28/17 A3004 RMK A01 T02800168  RH  051%=      5-min Rain = 0
KSE2 141813Z 15008KT 28/17 A3004 RMK A01 T02830173  RH  051%=      5-min Rain = 0
KSE2 141814Z 16011KT 29/17 A3004 RMK A01 T02860171  RH  050%=      5-min Rain = 0
KSE2 141815Z 17013G19KT 29/17 A3004 RMK A01 T02870169  RH  049%=      5-min Rain = 0
KSE2 141816Z 15009KT 29/17 A3004 RMK A01 T02880172  RH  050%=      5-min Rain = 0
KSE2 141817Z 15011KT 29/17 A3004 RMK A01 T02880170  RH  049%=      5-min Rain = 0
KSE2 141818Z 15012KT 29/17 A3004 RMK A01 T02880172  RH  049%=      5-min Rain = 0
KSE2 141819Z 15011G17KT 29/17 A3004 RMK A01 T02880171  RH  049%=      5-min Rain = 0
KSE2 141820Z 16011KT 29/17 A3004 RMK A01 T02890170  RH  049%=      5-min Rain = 0
KSE2 141821Z 17011G16KT 29/17 A3004 RMK A01 T02890169  RH  048%=      5-min Rain = 0
KSE2 141822Z 18010G15KT 29/17 A3004 RMK A01 T02880169  RH  049%=      5-min Rain = 0
KSE2 141823Z 16007KT 29/18 A3004 RMK A01 T02870176  RH  051%=      5-min Rain = 0
KSE2 141824Z 17014G20KT 29/18 A3004 RMK A01 T02890176  RH  050%=      5-min Rain = 0
KSE2 141825Z 17011G18KT 29/17 A3004 RMK A01 T02890172  RH  049%=      5-min Rain = 0
KSE2 141826Z 17011KT 29/17 A3004 RMK A01 T02880170  RH  049%=      5-min Rain = 0
KSE2 141827Z 17012G18KT 29/17 A3004 RMK A01 T02860168  RH  049%=      5-min Rain = 0
KSE2 141828Z 16015KT 29/17 A3004 RMK A01 T02850167  RH  049%=      5-min Rain = 0
KSE2 141829Z 15014G19KT 28/16 A3004 RMK A01 T02840163  RH  048%=      5-min Rain = 0
KSE2 141830Z 18012KT 28/17 A3004 RMK A01 T02840167  RH  049%=      5-min Rain = 0
KSE2 141831Z 18010KT 28/17 A3004 RMK A01 T02840167  RH  049%=      5-min Rain = 0
KSE2 141832Z 18011KT 28/17 A3004 RMK A01 T02840169  RH  049%=      5-min Rain = 0
KSE2 141833Z 18013G18KT 29/17 A3004 RMK A01 T02860167  RH  049%=      5-min Rain = 0
KSE2 141834Z 18012G17KT 29/16 A3004 RMK A01 T02870164  RH  047%=      5-min Rain = 0
KSE2 141835Z 17007G13KT 29/17 A3003 RMK A01 T02880172  RH  050%=      5-min Rain = 0
KSE2 141836Z 15009KT 29/18 A3003 RMK A01 T02910176  RH  050%=      5-min Rain = 0
KSE2 141837Z 17008G16KT 29/18 A3003 RMK A01 T02930178  RH  050%=      5-min Rain = 0
KSE2 141838Z 15010KT 30/18 A3003 RMK A01 T02960177  RH  049%=      5-min Rain = 0
KSE2 141839Z 15010G16KT 30/18 A3003 RMK A01 T02960175  RH  048%=      5-min Rain = 0
KSE2 141840Z 15014KT 30/17 A3003 RMK A01 T02950168  RH  046%=      5-min Rain = 0
KSE2 141841Z 14010G15KT 29/17 A3003 RMK A01 T02920171  RH  048%=      5-min Rain = 0
KSE2 141842Z 14013G18KT 29/17 A3003 RMK A01 T02910170  RH  048%=      5-min Rain = 0
KSE2 141843Z 15009KT 29/17 A3003 RMK A01 T02910171  RH  048%=      5-min Rain = 0
KSE2 141844Z 16014G19KT 29/17 A3003 RMK A01 T02910172  RH  049%=      5-min Rain = 0
KSE2 141845Z 15013KT 29/17 A3003 RMK A01 T02920170  RH  048%=      5-min Rain = 0
KSE2 141846Z 16013KT 29/17 A3003 RMK A01 T02910169  RH  048%=      5-min Rain = 0
KSE2 141847Z 15013KT 29/17 A3003 RMK A01 T02900168  RH  048%=      5-min Rain = 0
KSE2 141848Z 15010KT 29/17 A3003 RMK A01 T02890168  RH  048%=      5-min Rain = 0
KSE2 141849Z 16011G16KT 29/17 A3003 RMK A01 T02890173  RH  049%=      5-min Rain = 0
KSE2 141850Z 19010KT 29/17 A3003 RMK A01 T02910172  RH  048%=      5-min Rain = 0
KSE2 141851Z 18010G15KT 29/17 A3003 RMK A01 T02920169  RH  047%=      5-min Rain = 0
KSE2 141852Z 18009KT 29/17 A3003 RMK A01 T02920174  RH  049%=      5-min Rain = 0
KSE2 141853Z 17009G16KT 29/17 A3003 RMK A01 T02940174  RH  048%=      5-min Rain = 0
KSE2 141854Z 17013KT 29/17 A3003 RMK A01 T02940171  RH  048%=      5-min Rain = 0
KSE2 141855Z 17009KT 29/17 A3003 RMK A01 T02940171  RH  047%=      5-min Rain = 0
KSE2 141856Z 16013G19KT 29/17 A3003 RMK A01 T02940171  RH  048%=      5-min Rain = 0
KSE2 141857Z 17011G17KT 29/17 A3003 RMK A01 T02940170  RH  047%=      5-min Rain = 0
KSE2 141858Z 15010G15KT 29/17 A3003 RMK A01 T02940173  RH  048%=      5-min Rain = 0
KSE2 141859Z 16007KT 30/17 A3003 RMK A01 T02950173  RH  048%=      5-min Rain = 0
KSE2 141900Z 16009G14KT 30/17 A3003 RMK A01 T02960174  RH  048%=      5-min Rain = 0
KSE2 141901Z 15011G16KT 30/17 A3003 RMK A01 T02970174  RH  048%=      5-min Rain = 0
KSE2 141902Z 16011G16KT 30/17 A3003 RMK A01 T02970170  RH  046%=      5-min Rain = 0
KSE2 141903Z 15012KT 30/17 A3003 RMK A01 T02970171  RH  047%=      5-min Rain = 0
KSE2 141904Z 16011KT 30/17 A3003 RMK A01 T02950165  RH  045%=      5-min Rain = 0
KSE2 141905Z 17010G15KT 29/17 A3002 RMK A01 T02930168  RH  047%=      5-min Rain = 0
KSE2 141906Z 18011G16KT 29/17 A3002 RMK A01 T02930169  RH  047%=      5-min Rain = 0
KSE2 141907Z 17010KT 29/18 A3002 RMK A01 T02940175  RH  049%=      5-min Rain = 0
KSE2 141908Z 19013G18KT 30/17 A3002 RMK A01 T02970173  RH  047%=      5-min Rain = 0
KSE2 141909Z 18012KT 30/17 A3003 RMK A01 T02970171  RH  046%=      5-min Rain = 0
KSE2 141910Z 18008G13KT 30/18 A3002 RMK A01 T02970175  RH  048%=      5-min Rain = 0
KSE2 141911Z 17012KT 30/17 A3002 RMK A01 T02980171  RH  047%=      5-min Rain = 0
KSE2 141912Z 15011KT 30/17 A3002 RMK A01 T02980169  RH  046%=      5-min Rain = 0
KSE2 141913Z 16010KT 30/17 A3002 RMK A01 T02950166  RH  046%=      5-min Rain = 0
KSE2 141914Z 17015KT 30/17 A3002 RMK A01 T02950169  RH  047%=      5-min Rain = 0
KSE2 141915Z 16013G18KT 30/17 A3002 RMK A01 T02950170  RH  047%=      5-min Rain = 0
KSE2 141916Z 16016KT 30/17 A3002 RMK A01 T02950168  RH  046%=      5-min Rain = 0
KSE2 141917Z 16013G18KT 30/17 A3002 RMK A01 T02950167  RH  046%=      5-min Rain = 0
KSE2 141918Z 16012KT 29/17 A3002 RMK A01 T02940167  RH  046%=      5-min Rain = 0
KSE2 141919Z 16010G15KT 30/17 A3002 RMK A01 T02950170  RH  047%=      5-min Rain = 0
KSE2 141920Z 16014G19KT 30/17 A3002 RMK A01 T02960167  RH  046%=      5-min Rain = 0
KSE2 141921Z 18016KT 30/17 A3002 RMK A01 T02970168  RH  046%=      5-min Rain = 0
KSE2 141922Z 20015G20KT 30/16 A3002 RMK A01 T02960164  RH  045%=      5-min Rain = 0
KSE2 141923Z 20014KT 29/16 A3002 RMK A01 T02940163  RH  045%=      5-min Rain = 0
KSE2 141924Z 19011KT 29/17 A3002 RMK A01 T02940167  RH  046%=      5-min Rain = 0
KSE2 141925Z 19009KT 29/17 A3002 RMK A01 T02940170  RH  047%=      5-min Rain = 0
KSE2 141926Z 20009G17KT 30/17 A3002 RMK A01 T02970174  RH  048%=      5-min Rain = 0
KSE2 141927Z 20013KT 30/17 A3002 RMK A01 T02980169  RH  046%=      5-min Rain = 0
KSE2 141928Z 19016KT 30/17 A3002 RMK A01 T02970169  RH  046%=      5-min Rain = 0
KSE2 141929Z 19014G19KT 30/17 A3002 RMK A01 T02970171  RH  047%=      5-min Rain = 0
KSE2 141930Z 18014KT 30/17 A3002 RMK A01 T02970168  RH  046%=      5-min Rain = 0
KSE2 141931Z 19015KT 30/17 A3002 RMK A01 T02960167  RH  046%=      5-min Rain = 0
KSE2 141932Z 19014KT 30/17 A3002 RMK A01 T02960167  RH  046%=      5-min Rain = 0
KSE2 141933Z 20015KT 30/16 A3002 RMK A01 T02950164  RH  045%=      5-min Rain = 0
KSE2 141934Z 19012KT 29/17 A3002 RMK A01 T02930167  RH  047%=      5-min Rain = 0
KSE2 141935Z 18012KT 30/17 A3002 RMK A01 T02950170  RH  047%=      5-min Rain = 0
KSE2 141936Z 18011G18KT 30/17 A3002 RMK A01 T02960169  RH  046%=      5-min Rain = 0
KSE2 141937Z 19015KT 30/17 A3002 RMK A01 T02960170  RH  047%=      5-min Rain = 0
KSE2 141938Z 18016KT 30/17 A3002 RMK A01 T02970168  RH  046%=      5-min Rain = 0
KSE2 141939Z 18012KT 30/17 A3001 RMK A01 T02960167  RH  046%=      5-min Rain = 0
KSE2 141940Z 18013G18KT 30/17 A3001 RMK A01 T02950169  RH  047%=      5-min Rain = 0
KSE2 141941Z 20014KT 30/17 A3001 RMK A01 T02950169  RH  047%=      5-min Rain = 0
KSE2 141942Z 20011KT 30/17 A3001 RMK A01 T02950171  RH  047%=      5-min Rain = 0
KSE2 141943Z 20015KT 30/17 A3001 RMK A01 T02960173  RH  048%=      5-min Rain = 0
KSE2 141944Z 18014KT 30/17 A3001 RMK A01 T02960169  RH  046%=      5-min Rain = 0
KSE2 141945Z 20010KT 29/17 A3001 RMK A01 T02940171  RH  047%=      5-min Rain = 0
KSE2 141946Z 19011KT 29/17 A3001 RMK A01 T02940171  RH  048%=      5-min Rain = 0
KSE2 141947Z 19010KT 30/18 A3001 RMK A01 T02970178  RH  049%=      5-min Rain = 0
KSE2 141948Z 18011KT 30/17 A3001 RMK A01 T03000173  RH  047%=      5-min Rain = 0
KSE2 141949Z 19010G16KT 30/18 A3001 RMK A01 T03000176  RH  047%=      5-min Rain = 0
KSE2 141950Z 19012KT 30/17 A3001 RMK A01 T03010172  RH  046%=      5-min Rain = 0
KSE2 141951Z 20011KT 30/17 A3001 RMK A01 T03000173  RH  047%=      5-min Rain = 0
KSE2 141952Z 19009KT 30/18 A3001 RMK A01 T02990176  RH  047%=      5-min Rain = 0
KSE2 141953Z 16013KT 30/17 A3001 RMK A01 T03000174  RH  047%=      5-min Rain = 0
KSE2 141954Z 15014KT 30/17 A3001 RMK A01 T02980174  RH  047%=      5-min Rain = 0
KSE2 141955Z 15013KT 30/17 A3001 RMK A01 T02970173  RH  047%=      5-min Rain = 0
KSE2 141956Z 15010KT 30/17 A3001 RMK A01 T02960174  RH  048%=      5-min Rain = 0
KSE2 141957Z 15010KT 30/18 A3001 RMK A01 T02960178  RH  049%=      5-min Rain = 0
KSE2 141958Z 17011KT 30/17 A3001 RMK A01 T02970174  RH  048%=      5-min Rain = 0
KSE2 141959Z 17011G16KT 30/17 A30 RMK A01 T02960174  RH  048%=      5-min Rain = 0
KSE2 142000Z 16014G21KT 30/17 A30 RMK A01 T02970173  RH  047%=      5-min Rain = 0
KSE2 142001Z 19013G18KT 30/17 A30 RMK A01 T02980172  RH  047%=      5-min Rain = 0
KSE2 142002Z 20013G21KT 30/18 A3001 RMK A01 T02990175  RH  047%=      5-min Rain = 0
KSE2 142003Z 20015G20KT 30/17 A3001 RMK A01 T02990172  RH  046%=      5-min Rain = 0
KSE2 142004Z 19012G18KT 30/17 A3001 RMK A01 T02990172  RH  046%=      5-min Rain = 0
KSE2 142005Z 20012G17KT 30/17 A3001 RMK A01 T02990174  RH  047%=      5-min Rain = 0
KSE2 142006Z 19014G19KT 30/17 A3001 RMK A01 T03000171  RH  046%=      5-min Rain = 0
KSE2 142007Z 20011G16KT 30/17 A30 RMK A01 T03000173  RH  046%=      5-min Rain = 0
KSE2 142008Z 18012KT 30/17 A30 RMK A01 T03000174  RH  047%=      5-min Rain = 0
KSE2 142009Z 18013KT 30/17 A3001 RMK A01 T03010174  RH  046%=      5-min Rain = 0
KSE2 142010Z 17012KT 30/17 A3001 RMK A01 T03010173  RH  046%=      5-min Rain = 0
KSE2 142011Z 17013KT 30/17 A30 RMK A01 T03010173  RH  046%=      5-min Rain = 0
KSE2 142012Z 14014KT 30/17 A30 RMK A01 T03010171  RH  046%=      5-min Rain = 0
KSE2 142013Z 17014G19KT 30/17 A30 RMK A01 T03010168  RH  045%=      5-min Rain = 0
KSE2 142014Z 18012G18KT 30/17 A30 RMK A01 T03010173  RH  046%=      5-min Rain = 0
KSE2 142015Z 20013KT 30/17 A30 RMK A01 T03020167  RH  044%=      5-min Rain = 0
KSE2 142016Z 19017KT 30/17 A30 RMK A01 T03010167  RH  045%=      5-min Rain = 0
KSE2 142017Z 17011G17KT 30/17 A30 RMK A01 T03010169  RH  045%=      5-min Rain = 0
KSE2 142018Z 17011G18KT 30/17 A30 RMK A01 T03030171  RH  045%=      5-min Rain = 0
KSE2 142019Z 17013KT 30/17 A30 RMK A01 T03040169  RH  044%=      5-min Rain = 0
KSE2 142020Z 17014KT 30/17 A30 RMK A01 T03030168  RH  044%=      5-min Rain = 0
KSE2 142021Z 16010KT 30/17 A30 RMK A01 T03020172  RH  046%=      5-min Rain = 0
KSE2 142022Z 18009KT 30/18 A30 RMK A01 T03030177  RH  047%=      5-min Rain = 0
KSE2 142023Z 19010G17KT 31/17 A30 RMK A01 T03060168  RH  044%=      5-min Rain = 0
KSE2 142024Z 20015KT 31/16 A30 RMK A01 T03070159  RH  041%=      5-min Rain = 0
KSE2 142025Z 19014KT 31/16 A30 RMK A01 T03060157  RH  040%=      5-min Rain = 0
KSE2 142026Z 20014KT 30/16 A30 RMK A01 T03040159  RH  041%=      5-min Rain = 0
KSE2 142027Z 17007KT 30/17 A30 RMK A01 T03030171  RH  045%=      5-min Rain = 0
KSE2 142028Z 18010G15KT 31/18 A30 RMK A01 T03070177  RH  046%=      5-min Rain = 0
KSE2 142029Z 19014KT 31/17 A30 RMK A01 T03090167  RH  043%=      5-min Rain = 0
KSE2 142030Z 19014KT 31/17 A30 RMK A01 T03080166  RH  042%=      5-min Rain = 0
KSE2 142031Z 18013KT 31/17 A30 RMK A01 T03060166  RH  043%=      5-min Rain = 0
KSE2 142032Z 19015KT 31/16 A30 RMK A01 T03060163  RH  042%=      5-min Rain = 0
KSE2 142033Z 18010G16KT 31/16 A30 RMK A01 T03050163  RH  043%=      5-min Rain = 0
KSE2 142034Z 19015G21KT 31/16 A30 RMK A01 T03050164  RH  043%=      5-min Rain = 0
KSE2 142035Z 18014KT 30/17 A30 RMK A01 T03040165  RH  043%=      5-min Rain = 0
KSE2 142036Z 18012KT 30/17 A30 RMK A01 T03040168  RH  044%=      5-min Rain = 0
KSE2 142037Z 18010G15KT 31/17 A30 RMK A01 T03050170  RH  044%=      5-min Rain = 0
KSE2 142038Z 18012G19KT 31/17 A30 RMK A01 T03050170  RH  044%=      5-min Rain = 0
KSE2 142039Z 17011KT 31/17 A30 RMK A01 T03050171  RH  045%=      5-min Rain = 0
KSE2 142040Z 18010KT 30/17 A30 RMK A01 T03040172  RH  045%=      5-min Rain = 0
KSE2 142041Z 18008G13KT 30/18 A30 RMK A01 T03040175  RH  046%=      5-min Rain = 0
KSE2 142042Z 19008KT 31/17 A30 RMK A01 T03060170  RH  044%=      5-min Rain = 0
KSE2 142043Z 19007KT 31/17 A30 RMK A01 T03070174  RH  045%=      5-min Rain = 0
KSE2 142044Z 16012G18KT 31/17 A30 RMK A01 T03080173  RH  044%=      5-min Rain = 0
KSE2 142045Z 18013KT 31/17 A30 RMK A01 T03080170  RH  044%=      5-min Rain = 0
KSE2 142046Z 19011G16KT 31/17 A30 RMK A01 T03070173  RH  045%=      5-min Rain = 0
KSE2 142047Z 20011G17KT 31/17 A30 RMK A01 T03070171  RH  044%=      5-min Rain = 0
KSE2 142048Z 20014KT 31/17 A2999 RMK A01 T03080168  RH  043%=      5-min Rain = 0
KSE2 142049Z 19014G20KT 31/17 A30 RMK A01 T03070171  RH  044%=      5-min Rain = 0
KSE2 142050Z 19010G17KT 31/17 A30 RMK A01 T03060165  RH  043%=      5-min Rain = 0
KSE2 142051Z 18011G16KT 31/17 A30 RMK A01 T03050168  RH  044%=      5-min Rain = 0
KSE2 142052Z 17009G16KT 31/17 A30 RMK A01 T03050169  RH  044%=      5-min Rain = 0
KSE2 142053Z 16014KT 30/16 A2999 RMK A01 T03040164  RH  043%=      5-min Rain = 0
KSE2 142054Z 17010KT 30/16 A2999 RMK A01 T03010164  RH  044%=      5-min Rain = 0
KSE2 142055Z 18011G17KT 30/17 A30 RMK A01 T03010169  RH  045%=      5-min Rain = 0
KSE2 142056Z 19011KT 30/17 A2999 RMK A01 T03010171  RH  046%=      5-min Rain = 0
KSE2 142057Z 19011KT 30/17 A2999 RMK A01 T03000171  RH  046%=      5-min Rain = 0
KSE2 142058Z 18010KT 30/17 A2999 RMK A01 T03000169  RH  045%=      5-min Rain = 0
KSE2 142059Z 17012KT 30/17 A2999 RMK A01 T03000166  RH  044%=      5-min Rain = 0
KSE2 142100Z 17013G19KT 30/17 A2999 RMK A01 T03010165  RH  044%=      5-min Rain = 0
KSE2 142101Z 17012G18KT 30/16 A2999 RMK A01 T03010158  RH  042%=      5-min Rain = 0
KSE2 142102Z 18012G21KT 30/16 A2999 RMK A01 T03010160  RH  043%=      5-min Rain = 0
KSE2 142103Z 18016KT 30/16 A2999 RMK A01 T03020158  RH  042%=      5-min Rain = 0
KSE2 142104Z 19012G17KT 30/16 A2999 RMK A01 T03020160  RH  042%=      5-min Rain = 0
KSE2 142105Z 17013G18KT 30/16 A2999 RMK A01 T03020164  RH  043%=      5-min Rain = 0
KSE2 142106Z 17013G20KT 30/16 A2999 RMK A01 T03020159  RH  042%=      5-min Rain = 0
KSE2 142107Z 16011G16KT 30/16 A2999 RMK A01 T03010163  RH  043%=      5-min Rain = 0
KSE2 142108Z 15011KT 30/17 A2999 RMK A01 T03010168  RH  045%=      5-min Rain = 0
KSE2 142109Z 16011KT 30/17 A2999 RMK A01 T03030168  RH  044%=      5-min Rain = 0
KSE2 142110Z 17012KT 30/17 A2999 RMK A01 T03030165  RH  043%=      5-min Rain = 0
KSE2 142111Z 16011G17KT 30/17 A2999 RMK A01 T03020167  RH  044%=      5-min Rain = 0
KSE2 142112Z 17016G22KT 30/16 A2999 RMK A01 T03030161  RH  042%=      5-min Rain = 0
KSE2 142113Z 17013KT 30/16 A2999 RMK A01 T03020162  RH  043%=      5-min Rain = 0
KSE2 142114Z 16014G20KT 30/16 A2999 RMK A01 T03020162  RH  043%=      5-min Rain = 0
KSE2 142115Z 17014KT 30/16 A2999 RMK A01 T03010160  RH  042%=      5-min Rain = 0
KSE2 142116Z 18011KT 30/16 A2999 RMK A01 T03000161  RH  043%=      5-min Rain = 0
KSE2 142117Z 17011KT 30/16 A2999 RMK A01 T03000163  RH  043%=      5-min Rain = 0
KSE2 142118Z 17013KT 30/16 A2999 RMK A01 T03010161  RH  043%=      5-min Rain = 0
KSE2 142119Z 17011G16KT 30/16 A2999 RMK A01 T03010164  RH  043%=      5-min Rain = 0
KSE2 142120Z 17008G13KT 30/17 A2999 RMK A01 T03020166  RH  044%=      5-min Rain = 0
KSE2 142121Z 16011G17KT 30/16 A2999 RMK A01 T03030164  RH  043%=      5-min Rain = 0
KSE2 142122Z 17010G15KT 30/16 A2999 RMK A01 T03040164  RH  043%=      5-min Rain = 0
KSE2 142123Z 16018KT 31/16 A2998 RMK A01 T03050157  RH  041%=      5-min Rain = 0
KSE2 142124Z 17014G19KT 30/15 A2998 RMK A01 T03040153  RH  040%=      5-min Rain = 0
KSE2 142125Z 17016KT 30/15 A2998 RMK A01 T03030150  RH  040%=      5-min Rain = 0
KSE2 142126Z 17012G17KT 30/15 A2998 RMK A01 T03010154  RH  041%=      5-min Rain = 0
KSE2 142127Z 16015G20KT 30/16 A2998 RMK A01 T03010157  RH  042%=      5-min Rain = 0
KSE2 142128Z 16015KT 30/16 A2998 RMK A01 T03010155  RH  041%=      5-min Rain = 0
KSE2 142129Z 17013KT 30/16 A2999 RMK A01 T03010156  RH  042%=      5-min Rain = 0
KSE2 142130Z 18011KT 30/16 A2998 RMK A01 T03010158  RH  042%=      5-min Rain = 0
KSE2 142131Z 18011KT 30/16 A2998 RMK A01 T03020156  RH  041%=      5-min Rain = 0
KSE2 142132Z 18012KT 30/16 A2998 RMK A01 T03030158  RH  042%=      5-min Rain = 0
KSE2 142133Z 18012KT 30/16 A2998 RMK A01 T03030159  RH  042%=      5-min Rain = 0
KSE2 142134Z 17010KT 30/16 A2998 RMK A01 T03040161  RH  042%=      5-min Rain = 0
KSE2 142135Z 17010KT 30/17 A2998 RMK A01 T03040165  RH  043%=      5-min Rain = 0
KSE2 142136Z 17014G23KT 31/17 A2998 RMK A01 T03060165  RH  043%=      5-min Rain = 0
KSE2 142137Z 17014KT 31/16 A2998 RMK A01 T03070163  RH  042%=      5-min Rain = 0
KSE2 142138Z 18013G18KT 31/16 A2998 RMK A01 T03050162  RH  042%=      5-min Rain = 0
KSE2 142139Z 17011G16KT 30/16 A2998 RMK A01 T03040161  RH  042%=      5-min Rain = 0
KSE2 142140Z 18013G19KT 30/16 A2998 RMK A01 T03030161  RH  042%=      5-min Rain = 0
KSE2 142141Z 17014G21KT 30/16 A2998 RMK A01 T03030159  RH  042%=      5-min Rain = 0
KSE2 142142Z 18014KT 30/16 A2998 RMK A01 T03030161  RH  042%=      5-min Rain = 0
KSE2 142143Z 16013G20KT 30/16 A2998 RMK A01 T03030160  RH  042%=      5-min Rain = 0
KSE2 142144Z 17012G17KT 30/16 A2998 RMK A01 T03030160  RH  042%=      5-min Rain = 0
KSE2 142145Z 17010KT 30/16 A2998 RMK A01 T03030164  RH  043%=      5-min Rain = 0
KSE2 142146Z 17011KT 30/16 A2998 RMK A01 T03040161  RH  042%=      5-min Rain = 0
KSE2 142147Z 18008KT 30/17 A2998 RMK A01 T03040165  RH  043%=      5-min Rain = 0
KSE2 142148Z 16012G18KT 31/17 A2998 RMK A01 T03060165  RH  043%=      5-min Rain = 0
KSE2 142149Z 15014G20KT 31/16 A2997 RMK A01 T03060161  RH  042%=      5-min Rain = 0
KSE2 142150Z 15016G22KT 31/16 A2997 RMK A01 T03050160  RH  042%=      5-min Rain = 0
KSE2 142151Z 16013KT 30/16 A2998 RMK A01 T03040163  RH  043%=      5-min Rain = 0
KSE2 142152Z 17011G17KT 30/16 A2998 RMK A01 T03040162  RH  042%=      5-min Rain = 0
KSE2 142153Z 17010KT 30/17 A2998 RMK A01 T03030166  RH  043%=      5-min Rain = 0
KSE2 142154Z 16010G15KT 30/16 A2997 RMK A01 T03040160  RH  042%=      5-min Rain = 0
KSE2 142155Z 17010G15KT 30/17 A2997 RMK A01 T03030165  RH  043%=      5-min Rain = 0
KSE2 142156Z 18014G20KT 30/16 A2997 RMK A01 T03040160  RH  042%=      5-min Rain = 0
KSE2 142157Z 18014KT 30/16 A2997 RMK A01 T03040159  RH  042%=      5-min Rain = 0
KSE2 142158Z 19013KT 30/16 A2997 RMK A01 T03020157  RH  041%=      5-min Rain = 0
KSE2 142159Z 18015G20KT 30/16 A2997 RMK A01 T03000156  RH  042%=      5-min Rain = 0
KSE2 142200Z 19013KT 30/16 A2997 RMK A01 T02990157  RH  042%=      5-min Rain = 0
KSE2 142201Z 19015KT 30/16 A2997 RMK A01 T02970156  RH  042%=      5-min Rain = 0
KSE2 142202Z 18012G18KT 30/16 A2997 RMK A01 T02970157  RH  043%=      5-min Rain = 0
KSE2 142203Z 18010KT 30/16 A2997 RMK A01 T02970157  RH  043%=      5-min Rain = 0
KSE2 142204Z 19015KT 30/16 A2997 RMK A01 T02980158  RH  043%=      5-min Rain = 0
KSE2 142205Z 18013KT 30/16 A2997 RMK A01 T02990159  RH  043%=      5-min Rain = 0
KSE2 142206Z 17011G16KT 30/16 A2997 RMK A01 T03000161  RH  043%=      5-min Rain = 0
KSE2 142207Z 16012G19KT 30/16 A2997 RMK A01 T03010161  RH  043%=      5-min Rain = 0
KSE2 142208Z 16015KT 30/16 A2997 RMK A01 T03020161  RH  042%=      5-min Rain = 0
KSE2 142209Z 16013G18KT 30/16 A2997 RMK A01 T03020161  RH  042%=      5-min Rain = 0
KSE2 142210Z 17014G19KT 30/16 A2997 RMK A01 T03020158  RH  042%=      5-min Rain = 0
KSE2 142211Z 17016KT 30/16 A2997 RMK A01 T03020158  RH  042%=      5-min Rain = 0
KSE2 142212Z 18013KT 30/16 A2997 RMK A01 T03020160  RH  042%=      5-min Rain = 0
KSE2 142213Z 18010G15KT 30/16 A2997 RMK A01 T03020164  RH  043%=      5-min Rain = 0
KSE2 142214Z 17008G13KT 30/17 A2997 RMK A01 T03030166  RH  044%=      5-min Rain = 0
KSE2 142215Z 18013KT 31/17 A2997 RMK A01 T03050165  RH  043%=      5-min Rain = 0
KSE2 142216Z 17011G17KT 31/16 A2997 RMK A01 T03050163  RH  042%=      5-min Rain = 0
KSE2 142217Z 18014KT 31/16 A2996 RMK A01 T03050159  RH  041%=      5-min Rain = 0
KSE2 142218Z 18011KT 30/16 A2996 RMK A01 T03040161  RH  042%=      5-min Rain = 0
KSE2 142219Z 18009G16KT 30/17 A2996 RMK A01 T03040166  RH  043%=      5-min Rain = 0
KSE2 142220Z 18015KT 31/16 A2996 RMK A01 T03060164  RH  042%=      5-min Rain = 0
KSE2 142221Z 18013KT 31/16 A2996 RMK A01 T03060162  RH  042%=      5-min Rain = 0
KSE2 142222Z 18014G20KT 31/16 A2996 RMK A01 T03050164  RH  043%=      5-min Rain = 0
KSE2 142223Z 18011KT 31/16 A2996 RMK A01 T03050163  RH  043%=      5-min Rain = 0
KSE2 142224Z 19010G15KT 31/17 A2996 RMK A01 T03050166  RH  043%=      5-min Rain = 0
KSE2 142225Z 18014KT 31/17 A2996 RMK A01 T03050168  RH  044%=      5-min Rain = 0
KSE2 142226Z 18011KT 31/16 A2996 RMK A01 T03050164  RH  043%=      5-min Rain = 0
KSE2 142227Z 18013KT 30/17 A2996 RMK A01 T03040165  RH  043%=      5-min Rain = 0
KSE2 142228Z 18009KT 30/17 A2996 RMK A01 T03040168  RH  044%=      5-min Rain = 0
KSE2 142229Z 15011KT 31/17 A2996 RMK A01 T03050168  RH  044%=      5-min Rain = 0
KSE2 142230Z 16012KT 31/16 A2996 RMK A01 T03050164  RH  043%=      5-min Rain = 0
KSE2 142231Z 15012KT 31/16 A2996 RMK A01 T03050163  RH  043%=      5-min Rain = 0
KSE2 142232Z 15011KT 30/17 A2996 RMK A01 T03040167  RH  044%=      5-min Rain = 0
KSE2 142233Z 15014KT 30/16 A2996 RMK A01 T03040164  RH  043%=      5-min Rain = 0
KSE2 142234Z 16010G18KT 30/17 A2996 RMK A01 T03030167  RH  044%=      5-min Rain = 0
KSE2 142235Z 18009G14KT 30/17 A2996 RMK A01 T03040170  RH  045%=      5-min Rain = 0
KSE2 142236Z 18012G18KT 31/17 A2996 RMK A01 T03050170  RH  044%=      5-min Rain = 0
KSE2 142237Z 18014G19KT 31/16 A2996 RMK A01 T03060164  RH  042%=      5-min Rain = 0
KSE2 142238Z 19011KT 31/16 A2996 RMK A01 T03060164  RH  043%=      5-min Rain = 0
KSE2 142239Z 19011KT 31/17 A2996 RMK A01 T03050165  RH  043%=      5-min Rain = 0
KSE2 142240Z 18008KT 31/17 A2996 RMK A01 T03050168  RH  044%=      5-min Rain = 0
KSE2 142241Z 16011KT 31/17 A2996 RMK A01 T03050169  RH  044%=      5-min Rain = 0
KSE2 142242Z 17009KT 31/17 A2996 RMK A01 T03050169  RH  044%=      5-min Rain = 0
KSE2 142243Z 18013G18KT 31/17 A2995 RMK A01 T03050165  RH  043%=      5-min Rain = 0
KSE2 142244Z 18011G16KT 30/17 A2995 RMK A01 T03040167  RH  044%=      5-min Rain = 0
KSE2 142245Z 17012G19KT 30/17 A2995 RMK A01 T03040168  RH  044%=      5-min Rain = 0
KSE2 142246Z 17017KT 30/16 A2995 RMK A01 T03040161  RH  042%=      5-min Rain = 0
KSE2 142247Z 18017G22KT 30/16 A2996 RMK A01 T03020161  RH  043%=      5-min Rain = 0
KSE2 142248Z 18013G19KT 30/16 A2996 RMK A01 T03020160  RH  042%=      5-min Rain = 0
KSE2 142249Z 17015G20KT 30/16 A2995 RMK A01 T03020161  RH  043%=      5-min Rain = 0
KSE2 142250Z 17013KT 30/16 A2995 RMK A01 T03010160  RH  043%=      5-min Rain = 0
KSE2 142251Z 18014KT 30/16 A2995 RMK A01 T03000161  RH  043%=      5-min Rain = 0
KSE2 142252Z 17013G18KT 30/16 A2995 RMK A01 T03000163  RH  044%=      5-min Rain = 0
KSE2 142253Z 17009G14KT 30/17 A2995 RMK A01 T03000166  RH  044%=      5-min Rain = 0
KSE2 142254Z 18013KT 30/17 A2995 RMK A01 T03020166  RH  044%=      5-min Rain = 0
KSE2 142255Z 16011KT 30/17 A2995 RMK A01 T03020168  RH  045%=      5-min Rain = 0
KSE2 142256Z 17011KT 30/17 A2995 RMK A01 T03020170  RH  045%=      5-min Rain = 0
KSE2 142257Z 17012G17KT 30/17 A2995 RMK A01 T03030167  RH  044%=      5-min Rain = 0
KSE2 142258Z 18011KT 30/17 A2995 RMK A01 T03020168  RH  044%=      5-min Rain = 0
KSE2 142259Z 18013KT 30/17 A2995 RMK A01 T03020165  RH  044%=      5-min Rain = 0
KSE2 142300Z 18015KT 30/17 A2995 RMK A01 T03020166  RH  044%=      5-min Rain = 0
KSE2 142301Z 18012G17KT 30/17 A2995 RMK A01 T03010167  RH  045%=      5-min Rain = 0
KSE2 142302Z 18013KT 30/17 A2995 RMK A01 T03010168  RH  045%=      5-min Rain = 0
KSE2 142303Z 18010KT 30/17 A2995 RMK A01 T03000169  RH  045%=      5-min Rain = 0
KSE2 142304Z 17011G17KT 30/17 A2995 RMK A01 T03000171  RH  046%=      5-min Rain = 0
KSE2 142305Z 17012KT 30/17 A2995 RMK A01 T03000172  RH  046%=      5-min Rain = 0
KSE2 142306Z 18012KT 30/17 A2995 RMK A01 T03000173  RH  047%=      5-min Rain = 0
KSE2 142307Z 17009G14KT 30/17 A2995 RMK A01 T03000174  RH  047%=      5-min Rain = 0
KSE2 142308Z 17009G14KT 30/18 A2995 RMK A01 T03010177  RH  047%=      5-min Rain = 0
KSE2 142309Z 16012G17KT 30/18 A2994 RMK A01 T03020175  RH  047%=      5-min Rain = 0
KSE2 142310Z 17011G18KT 30/17 A2995 RMK A01 T03020174  RH  046%=      5-min Rain = 0
KSE2 142311Z 17014KT 30/17 A2995 RMK A01 T03020172  RH  046%=      5-min Rain = 0
KSE2 142312Z 16012KT 30/17 A2995 RMK A01 T03010171  RH  046%=      5-min Rain = 0
KSE2 142313Z 16009G15KT 30/17 A2994 RMK A01 T03010172  RH  046%=      5-min Rain = 0
KSE2 142314Z 17011G20KT 30/18 A2994 RMK A01 T03010176  RH  047%=      5-min Rain = 0
KSE2 142315Z 16013G18KT 30/17 A2994 RMK A01 T03020169  RH  045%=      5-min Rain = 0
KSE2 142316Z 17011KT 30/17 A2994 RMK A01 T03010169  RH  045%=      5-min Rain = 0
KSE2 142317Z 17013G18KT 30/17 A2994 RMK A01 T03000169  RH  045%=      5-min Rain = 0
KSE2 142318Z 17012KT 30/17 A2994 RMK A01 T03000172  RH  046%=      5-min Rain = 0
KSE2 142319Z 16012KT 30/17 A2994 RMK A01 T03000173  RH  047%=      5-min Rain = 0
KSE2 142320Z 15014KT 30/17 A2994 RMK A01 T03000173  RH  046%=      5-min Rain = 0
KSE2 142321Z 14011KT 30/18 A2994 RMK A01 T02990175  RH  047%=      5-min Rain = 0
KSE2 142322Z 16011G16KT 30/18 A2994 RMK A01 T02980175  RH  048%=      5-min Rain = 0
KSE2 142323Z 16014KT 30/18 A2994 RMK A01 T02980176  RH  048%=      5-min Rain = 0
KSE2 142324Z 15013KT 30/18 A2994 RMK A01 T02980176  RH  048%=      5-min Rain = 0
KSE2 142325Z 14013KT 30/18 A2994 RMK A01 T02980175  RH  048%=      5-min Rain = 0
KSE2 142326Z 14015KT 30/18 A2994 RMK A01 T02970176  RH  048%=      5-min Rain = 0
KSE2 142327Z 16012KT 30/18 A2994 RMK A01 T02970176  RH  048%=      5-min Rain = 0
KSE2 142328Z 16009G14KT 30/18 A2994 RMK A01 T02970179  RH  049%=      5-min Rain = 0
KSE2 142329Z 17009G14KT 30/18 A2994 RMK A01 T02980179  RH  049%=      5-min Rain = 0
KSE2 142330Z 17011KT 30/18 A2994 RMK A01 T02980180  RH  049%=      5-min Rain = 0
KSE2 142331Z 15009KT 30/18 A2994 RMK A01 T02980180  RH  049%=      5-min Rain = 0
KSE2 142332Z 15010G15KT 30/18 A2994 RMK A01 T02980180  RH  049%=      5-min Rain = 0
KSE2 142333Z 17012KT 30/18 A2994 RMK A01 T02980178  RH  048%=      5-min Rain = 0
KSE2 142334Z 15010G15KT 30/18 A2994 RMK A01 T02990178  RH  048%=      5-min Rain = 0
KSE2 142335Z 16011G16KT 30/18 A2994 RMK A01 T02980178  RH  048%=      5-min Rain = 0
KSE2 142336Z 16011KT 30/18 A2994 RMK A01 T02980177  RH  048%=      5-min Rain = 0
KSE2 142337Z 18014G19KT 30/18 A2994 RMK A01 T02980175  RH  048%=      5-min Rain = 0
KSE2 142338Z 17013G18KT 30/17 A2994 RMK A01 T02980174  RH  048%=      5-min Rain = 0
KSE2 142339Z 16012G18KT 30/17 A2994 RMK A01 T02970174  RH  048%=      5-min Rain = 0
KSE2 142340Z 16012KT 30/17 A2994 RMK A01 T02970174  RH  048%=      5-min Rain = 0
KSE2 142341Z 16011KT 30/17 A2994 RMK A01 T02970174  RH  048%=      5-min Rain = 0
KSE2 142342Z 17012KT 30/18 A2994 RMK A01 T02970176  RH  048%=      5-min Rain = 0
KSE2 142343Z 17011KT 30/18 A2994 RMK A01 T02970175  RH  048%=      5-min Rain = 0
KSE2 142344Z 16011G18KT 30/18 A2994 RMK A01 T02970177  RH  048%=      5-min Rain = 0
KSE2 142345Z 16013KT 30/18 A2994 RMK A01 T02970177  RH  048%=      5-min Rain = 0
KSE2 142346Z 15013G18KT 30/18 A2994 RMK A01 T02960176  RH  048%=      5-min Rain = 0
KSE2 142347Z 16010KT 30/18 A2994 RMK A01 T02960177  RH  049%=      5-min Rain = 0
KSE2 142348Z 16008KT 30/18 A2994 RMK A01 T02960179  RH  050%=      5-min Rain = 0
KSE2 142349Z 16009KT 30/18 A2994 RMK A01 T02960181  RH  050%=      5-min Rain = 0
KSE2 142350Z 16011KT 30/18 A2994 RMK A01 T02970179  RH  049%=      5-min Rain = 0
KSE2 142351Z 16012KT 30/18 A2994 RMK A01 T02970176  RH  048%=      5-min Rain = 0
KSE2 142352Z 17011G18KT 30/18 A2994 RMK A01 T02970177  RH  049%=      5-min Rain = 0
KSE2 142353Z 16014KT 30/18 A2994 RMK A01 T02970175  RH  048%=      5-min Rain = 0
KSE2 142354Z 17012KT 30/17 A2994 RMK A01 T02960173  RH  048%=      5-min Rain = 0
KSE2 142355Z 17011G18KT 30/18 A2994 RMK A01 T02950175  RH  048%=      5-min Rain = 0
KSE2 142356Z 17016KT 30/17 A2994 RMK A01 T02950173  RH  048%=      5-min Rain = 0
KSE2 142357Z 16013KT 29/17 A2994 RMK A01 T02940174  RH  048%=      5-min Rain = 0
KSE2 142358Z 17014G19KT 29/18 A2994 RMK A01 T02930175  RH  049%=      5-min Rain = 0
KSE2 142359Z 17014KT 29/18 A2993 RMK A01 T02930175  RH  049%=      5-min Rain = 0
KSE2 150000Z 16012G19KT 29/18 A2994 RMK A01 T02930176  RH  049%=      5-min Rain = 0
KSE2 150001Z 15014KT 29/18 A2993 RMK A01 T02930177  RH  049%=      5-min Rain = 0
KSE2 150002Z 16012KT 29/18 A2993 RMK A01 T02930177  RH  050%=      5-min Rain = 0
KSE2 150003Z 15015G20KT 29/18 A2993 RMK A01 T02940176  RH  049%=      5-min Rain = 0
KSE2 150004Z 15013KT 29/18 A2993 RMK A01 T02930176  RH  049%=      5-min Rain = 0
KSE2 150005Z 16014KT 29/18 A2993 RMK A01 T02930176  RH  049%=      5-min Rain = 0
KSE2 150006Z 15013KT 29/18 A2993 RMK A01 T02920175  RH  049%=      5-min Rain = 0
KSE2 150007Z 16014KT 29/18 A2993 RMK A01 T02930176  RH  049%=      5-min Rain = 0
KSE2 150008Z 16013KT 29/18 A2993 RMK A01 T02930177  RH  050%=      5-min Rain = 0
KSE2 150009Z 17010G15KT 29/18 A2993 RMK A01 T02920175  RH  049%=      5-min Rain = 0
KSE2 150010Z 15009KT 29/18 A2993 RMK A01 T02920177  RH  050%=      5-min Rain = 0
KSE2 150011Z 15010KT 29/18 A2993 RMK A01 T02920177  RH  050%=      5-min Rain = 0
KSE2 150012Z 16016KT 29/18 A2993 RMK A01 T02930175  RH  049%=      5-min Rain = 0
KSE2 150013Z 15014G20KT 29/17 A2993 RMK A01 T02920174  RH  049%=      5-min Rain = 0
KSE2 150014Z 16015KT 29/17 A2993 RMK A01 T02920173  RH  049%=      5-min Rain = 0
KSE2 150015Z 16012KT 29/17 A2993 RMK A01 T02920173  RH  049%=      5-min Rain = 0
KSE2 150016Z 17012G18KT 29/17 A2993 RMK A01 T02920173  RH  049%=      5-min Rain = 0
KSE2 150017Z 16014KT 29/17 A2993 RMK A01 T02920172  RH  048%=      5-min Rain = 0
KSE2 150018Z 17011KT 29/17 A2993 RMK A01 T02920172  RH  049%=      5-min Rain = 0
KSE2 150019Z 17011KT 29/17 A2993 RMK A01 T02910173  RH  049%=      5-min Rain = 0
KSE2 150020Z 17010G17KT 29/17 A2993 RMK A01 T02910173  RH  049%=      5-min Rain = 0
KSE2 150021Z 16014KT 29/17 A2993 RMK A01 T02920173  RH  049%=      5-min Rain = 0
KSE2 150022Z 17011G16KT 29/17 A2993 RMK A01 T02910172  RH  048%=      5-min Rain = 0
KSE2 150023Z 16011G18KT 29/17 A2993 RMK A01 T02920173  RH  049%=      5-min Rain = 0
KSE2 150024Z 16014G20KT 29/17 A2993 RMK A01 T02910171  RH  048%=      5-min Rain = 0
KSE2 150025Z 16012G18KT 29/17 A2993 RMK A01 T02920171  RH  048%=      5-min Rain = 0
KSE2 150026Z 16012G19KT 29/17 A2993 RMK A01 T02920173  RH  049%=      5-min Rain = 0
KSE2 150027Z 16007KT 29/17 A2993 RMK A01 T02920174  RH  049%=      5-min Rain = 0
KSE2 150028Z 16011KT 29/17 A2993 RMK A01 T02920174  RH  049%=      5-min Rain = 0
KSE2 150029Z 16012G17KT 29/17 A2993 RMK A01 T02920173  RH  049%=      5-min Rain = 0
KSE2 150030Z 17014G19KT 29/17 A2993 RMK A01 T02910173  RH  049%=      5-min Rain = 0
KSE2 150031Z 15014KT 29/17 A2993 RMK A01 T02910174  RH  049%=      5-min Rain = 0
KSE2 150032Z 16012G17KT 29/17 A2993 RMK A01 T02910174  RH  049%=      5-min Rain = 0
KSE2 150033Z 16013G18KT 29/17 A2993 RMK A01 T02910174  RH  049%=      5-min Rain = 0
KSE2 150034Z 16014KT 29/18 A2993 RMK A01 T02900175  RH  050%=      5-min Rain = 0
KSE2 150035Z 16013KT 29/18 A2993 RMK A01 T02900176  RH  050%=      5-min Rain = 0
KSE2 150036Z 15012KT 29/18 A2993 RMK A01 T02890176  RH  051%=      5-min Rain = 0
KSE2 150037Z 15012KT 29/18 A2993 RMK A01 T02880176  RH  051%=      5-min Rain = 0
KSE2 150038Z 16014KT 29/18 A2993 RMK A01 T02870176  RH  051%=      5-min Rain = 0
KSE2 150039Z 15013G18KT 29/18 A2993 RMK A01 T02870176  RH  051%=      5-min Rain = 0
KSE2 150040Z 15012KT 29/18 A2993 RMK A01 T02860176  RH  051%=      5-min Rain = 0
KSE2 150041Z 16012KT 29/18 A2993 RMK A01 T02860177  RH  052%=      5-min Rain = 0
KSE2 150042Z 15011KT 29/18 A2993 RMK A01 T02860177  RH  052%=      5-min Rain = 0
KSE2 150043Z 15011KT 29/18 A2993 RMK A01 T02850176  RH  052%=      5-min Rain = 0
KSE2 150044Z 16012KT 29/18 A2993 RMK A01 T02850176  RH  052%=      5-min Rain = 0
KSE2 150045Z 16007KT 29/18 A2993 RMK A01 T02850177  RH  052%=      5-min Rain = 0
KSE2 150046Z 15009KT 28/18 A2993 RMK A01 T02840178  RH  052%=      5-min Rain = 0
KSE2 150047Z 16010KT 28/18 A2993 RMK A01 T02840179  RH  053%=      5-min Rain = 0
KSE2 150048Z 15012KT 28/18 A2993 RMK A01 T02830178  RH  053%=      5-min Rain = 0
KSE2 150049Z 15010KT 28/18 A2993 RMK A01 T02830177  RH  053%=      5-min Rain = 0
KSE2 150050Z 15012KT 28/18 A2993 RMK A01 T02830178  RH  053%=      5-min Rain = 0
KSE2 150051Z 16009KT 28/18 A2993 RMK A01 T02830178  RH  053%=      5-min Rain = 0
KSE2 150052Z 15008KT 28/18 A2993 RMK A01 T02830179  RH  053%=      5-min Rain = 0
KSE2 150053Z 15009KT 28/18 A2993 RMK A01 T02820179  RH  054%=      5-min Rain = 0
KSE2 150054Z 15007KT 28/18 A2993 RMK A01 T02810179  RH  054%=      5-min Rain = 0
KSE2 150055Z 15008KT 28/18 A2993 RMK A01 T02800181  RH  055%=      5-min Rain = 0
KSE2 150056Z 16008KT 28/18 A2993 RMK A01 T02800180  RH  055%=      5-min Rain = 0
KSE2 150057Z 15008KT 28/18 A2993 RMK A01 T02790179  RH  055%=      5-min Rain = 0
KSE2 150058Z 16012KT 28/18 A2993 RMK A01 T02790178  RH  054%=      5-min Rain = 0
KSE2 150059Z 16008KT 28/18 A2993 RMK A01 T02800178  RH  054%=      5-min Rain = 0
KSE2 150100Z 16010KT 28/18 A2993 RMK A01 T02800178  RH  054%=      5-min Rain = 0
KSE2 150101Z 16012KT 28/18 A2993 RMK A01 T02800177  RH  054%=      5-min Rain = 0
KSE2 150102Z 16012KT 28/18 A2993 RMK A01 T02800177  RH  053%=      5-min Rain = 0
KSE2 150103Z 16008KT 28/18 A2993 RMK A01 T02800177  RH  054%=      5-min Rain = 0
KSE2 150104Z 15009KT 28/18 A2993 RMK A01 T02800179  RH  054%=      5-min Rain = 0
KSE2 150105Z 16010KT 28/18 A2993 RMK A01 T02790178  RH  054%=      5-min Rain = 0
KSE2 150106Z 16011KT 28/18 A2993 RMK A01 T02790177  RH  054%=      5-min Rain = 0
KSE2 150107Z 16009KT 28/18 A2993 RMK A01 T02780177  RH  054%=      5-min Rain = 0
KSE2 150108Z 16009KT 28/18 A2993 RMK A01 T02780178  RH  054%=      5-min Rain = 0
KSE2 150109Z 16009KT 28/18 A2993 RMK A01 T02780178  RH  055%=      5-min Rain = 0
KSE2 150110Z 16008KT 28/18 A2993 RMK A01 T02780178  RH  055%=      5-min Rain = 0
KSE2 150111Z 16009KT 28/18 A2993 RMK A01 T02770178  RH  055%=      5-min Rain = 0
KSE2 150112Z 16010KT 28/18 A2993 RMK A01 T02770177  RH  055%=      5-min Rain = 0
KSE2 150113Z 16010KT 28/18 A2993 RMK A01 T02770176  RH  054%=      5-min Rain = 0
KSE2 150114Z 16008KT 28/18 A2993 RMK A01 T02770177  RH  055%=      5-min Rain = 0
KSE2 150115Z 16008KT 28/18 A2993 RMK A01 T02770177  RH  055%=      5-min Rain = 0
KSE2 150116Z 16007KT 28/18 A2993 RMK A01 T02760177  RH  055%=      5-min Rain = 0
KSE2 150117Z 15008KT 28/18 A2993 RMK A01 T02760177  RH  055%=      5-min Rain = 0
KSE2 150118Z 16009KT 28/18 A2993 RMK A01 T02750176  RH  055%=      5-min Rain = 0
KSE2 150119Z 16009KT 28/18 A2993 RMK A01 T02750176  RH  055%=      5-min Rain = 0
KSE2 150120Z 16008KT 28/18 A2993 RMK A01 T02750176  RH  055%=      5-min Rain = 0
KSE2 150121Z 16009KT 28/18 A2993 RMK A01 T02750177  RH  055%=      5-min Rain = 0
KSE2 150122Z 16009KT 27/18 A2993 RMK A01 T02740175  RH  055%=      5-min Rain = 0
KSE2 150123Z 15008KT 27/17 A2993 RMK A01 T02740174  RH  054%=      5-min Rain = 0
KSE2 150124Z 16010KT 27/18 A2993 RMK A01 T02740175  RH  055%=      5-min Rain = 0
KSE2 150125Z 16010KT 27/18 A2993 RMK A01 T02740175  RH  055%=      5-min Rain = 0
KSE2 150126Z 16009KT 27/18 A2993 RMK A01 T02740175  RH  055%=      5-min Rain = 0
KSE2 150127Z 16010KT 27/18 A2993 RMK A01 T02740175  RH  055%=      5-min Rain = 0
KSE2 150128Z 16009KT 27/18 A2993 RMK A01 T02740175  RH  055%=      5-min Rain = 0
KSE2 150129Z 15009KT 27/18 A2993 RMK A01 T02740175  RH  055%=      5-min Rain = 0
KSE2 150130Z 16008KT 27/18 A2993 RMK A01 T02740175  RH  055%=      5-min Rain = 0
KSE2 150131Z 16008KT 27/18 A2993 RMK A01 T02730175  RH  055%=      5-min Rain = 0
KSE2 150132Z 15010KT 27/17 A2993 RMK A01 T02730174  RH  055%=      5-min Rain = 0
KSE2 150133Z 15009KT 27/17 A2993 RMK A01 T02730174  RH  055%=      5-min Rain = 0
KSE2 150134Z 15007KT 27/18 A2993 RMK A01 T02720175  RH  055%=      5-min Rain = 0
KSE2 150135Z 16009KT 27/17 A2993 RMK A01 T02720174  RH  055%=      5-min Rain = 0
KSE2 150136Z 15009KT 27/17 A2993 RMK A01 T02710174  RH  055%=      5-min Rain = 0
KSE2 150137Z 15009KT 27/17 A2993 RMK A01 T02710173  RH  055%=      5-min Rain = 0
KSE2 150138Z 15007KT 27/17 A2993 RMK A01 T02710174  RH  055%=      5-min Rain = 0
KSE2 150139Z 16008KT 27/17 A2993 RMK A01 T02710174  RH  055%=      5-min Rain = 0
KSE2 150140Z 15007KT 27/18 A2993 RMK A01 T02700175  RH  056%=      5-min Rain = 0
KSE2 150141Z 15008KT 27/17 A2993 RMK A01 T02700174  RH  056%=      5-min Rain = 0
KSE2 150142Z 15009KT 27/17 A2993 RMK A01 T02700173  RH  055%=      5-min Rain = 0
KSE2 150143Z 16007KT 27/17 A2993 RMK A01 T02700174  RH  056%=      5-min Rain = 0
KSE2 150144Z 16007KT 27/18 A2993 RMK A01 T02690175  RH  056%=      5-min Rain = 0
KSE2 150145Z 15007KT 27/17 A2993 RMK A01 T02680174  RH  056%=      5-min Rain = 0
KSE2 150146Z 16007KT 27/18 A2993 RMK A01 T02680175  RH  056%=      5-min Rain = 0
KSE2 150147Z 15007KT 27/17 A2993 RMK A01 T02680174  RH  056%=      5-min Rain = 0
KSE2 150148Z 15006KT 27/17 A2993 RMK A01 T02680174  RH  057%=      5-min Rain = 0
KSE2 150149Z 15006KT 27/18 A2993 RMK A01 T02670175  RH  057%=      5-min Rain = 0
KSE2 150150Z 16007KT 27/17 A2993 RMK A01 T02670174  RH  057%=      5-min Rain = 0
KSE2 150151Z 15007KT 27/17 A2993 RMK A01 T02660174  RH  057%=      5-min Rain = 0
KSE2 150152Z 15006KT 27/17 A2993 RMK A01 T02660174  RH  057%=      5-min Rain = 0
KSE2 150153Z 15007KT 27/17 A2993 RMK A01 T02660174  RH  057%=      5-min Rain = 0
KSE2 150154Z 15006KT 27/18 A2993 RMK A01 T02650175  RH  057%=      5-min Rain = 0
KSE2 150155Z 15007KT 27/18 A2993 RMK A01 T02650175  RH  058%=      5-min Rain = 0
KSE2 150156Z 15007KT 27/18 A2993 RMK A01 T02650175  RH  058%=      5-min Rain = 0
KSE2 150157Z 15007KT 26/18 A2993 RMK A01 T02640175  RH  058%=      5-min Rain = 0
KSE2 150158Z 16006KT 26/17 A2993 RMK A01 T02640174  RH  058%=      5-min Rain = 0
KSE2 150159Z 15007KT 26/18 A2993 RMK A01 T02640175  RH  058%=      5-min Rain = 0
KSE2 150200Z 15007KT 26/18 A2993 RMK A01 T02630175  RH  058%=      5-min Rain = 0
KSE2 150201Z 15006KT 26/18 A2993 RMK A01 T02630175  RH  058%=      5-min Rain = 0
KSE2 150202Z 15008KT 26/18 A2993 RMK A01 T02630175  RH  058%=      5-min Rain = 0
KSE2 150203Z 15007KT 26/17 A2993 RMK A01 T02630174  RH  058%=      5-min Rain = 0
KSE2 150204Z 15006KT 26/18 A2993 RMK A01 T02630175  RH  058%=      5-min Rain = 0
KSE2 150205Z 15007KT 26/18 A2993 RMK A01 T02620175  RH  059%=      5-min Rain = 0
KSE2 150206Z 15007KT 26/18 A2993 RMK A01 T02620175  RH  059%=      5-min Rain = 0
KSE2 150207Z 15006KT 26/18 A2993 RMK A01 T02620175  RH  059%=      5-min Rain = 0
KSE2 150208Z 15006KT 26/18 A2993 RMK A01 T02610175  RH  059%=      5-min Rain = 0
KSE2 150209Z 15006KT 26/18 A2993 RMK A01 T02610175  RH  059%=      5-min Rain = 0
KSE2 150210Z 15005KT 26/18 A2993 RMK A01 T02600176  RH  060%=      5-min Rain = 0
KSE2 150211Z 15006KT 26/18 A2993 RMK A01 T02590176  RH  060%=      5-min Rain = 0
KSE2 150212Z 15006KT 26/18 A2993 RMK A01 T02580176  RH  060%=      5-min Rain = 0
KSE2 150213Z 15007KT 26/18 A2993 RMK A01 T02580176  RH  060%=      5-min Rain = 0
KSE2 150214Z 15006KT 26/18 A2993 RMK A01 T02580176  RH  060%=      5-min Rain = 0
KSE2 150215Z 15006KT 26/18 A2993 RMK A01 T02580176  RH  060%=      5-min Rain = 0
KSE2 150216Z 15007KT 26/18 A2993 RMK A01 T02580176  RH  060%=      5-min Rain = 0
KSE2 150217Z 15006KT 26/18 A2993 RMK A01 T02580177  RH  061%=      5-min Rain = 0
KSE2 150218Z 14007KT 26/18 A2993 RMK A01 T02570176  RH  061%=      5-min Rain = 0
KSE2 150219Z 15005KT 26/18 A2993 RMK A01 T02570177  RH  061%=      5-min Rain = 0
KSE2 150220Z 15006KT 26/18 A2993 RMK A01 T02570177  RH  061%=      5-min Rain = 0
KSE2 150221Z 15006KT 26/18 A2994 RMK A01 T02560176  RH  061%=      5-min Rain = 0
KSE2 150222Z 15006KT 26/18 A2994 RMK A01 T02560176  RH  061%=      5-min Rain = 0
KSE2 150223Z 15007KT 26/18 A2994 RMK A01 T02560176  RH  061%=      5-min Rain = 0
KSE2 150224Z 15006KT 26/18 A2994 RMK A01 T02560176  RH  061%=      5-min Rain = 0
KSE2 150225Z 15007KT 26/18 A2994 RMK A01 T02560177  RH  062%=      5-min Rain = 0
KSE2 150226Z 14006KT 26/18 A2994 RMK A01 T02560178  RH  062%=      5-min Rain = 0
KSE2 150227Z 14007KT 26/18 A2993 RMK A01 T02550177  RH  062%=      5-min Rain = 0
KSE2 150228Z 14007KT 26/18 A2993 RMK A01 T02550177  RH  062%=      5-min Rain = 0
KSE2 150229Z 14007KT 25/18 A2993 RMK A01 T02540178  RH  063%=      5-min Rain = 0
KSE2 150230Z 14007KT 25/18 A2993 RMK A01 T02540178  RH  063%=      5-min Rain = 0
KSE2 150231Z 14006KT 25/18 A2993 RMK A01 T02530178  RH  063%=      5-min Rain = 0
KSE2 150232Z 14006KT 25/18 A2993 RMK A01 T02530178  RH  063%=      5-min Rain = 0
KSE2 150233Z 14007KT 25/18 A2993 RMK A01 T02520178  RH  064%=      5-min Rain = 0
KSE2 150234Z 14008KT 25/18 A2993 RMK A01 T02520178  RH  064%=      5-min Rain = 0
KSE2 150235Z 14007KT 25/18 A2993 RMK A01 T02520178  RH  064%=      5-min Rain = 0
KSE2 150236Z 13007KT 25/18 A2993 RMK A01 T02520178  RH  064%=      5-min Rain = 0
KSE2 150237Z 14007KT 25/18 A2993 RMK A01 T02510178  RH  064%=      5-min Rain = 0
KSE2 150238Z 14007KT 25/18 A2993 RMK A01 T02510178  RH  064%=      5-min Rain = 0
KSE2 150239Z 14008KT 25/18 A2993 RMK A01 T02510178  RH  064%=      5-min Rain = 0
KSE2 150240Z 14008KT 25/18 A2993 RMK A01 T02520178  RH  064%=      5-min Rain = 0
KSE2 150241Z 14007KT 25/18 A2993 RMK A01 T02520179  RH  064%=      5-min Rain = 0
KSE2 150242Z 14008KT 25/18 A2993 RMK A01 T02520178  RH  064%=      5-min Rain = 0
KSE2 150243Z 14007KT 25/18 A2993 RMK A01 T02520179  RH  064%=      5-min Rain = 0
KSE2 150244Z 14008KT 25/18 A2993 RMK A01 T02520179  RH  064%=      5-min Rain = 0
KSE2 150245Z 14006KT 25/18 A2993 RMK A01 T02530179  RH  064%=      5-min Rain = 0
KSE2 150246Z 14008KT 25/18 A2993 RMK A01 T02530180  RH  064%=      5-min Rain = 0
KSE2 150247Z 14008KT 25/18 A2993 RMK A01 T02530179  RH  064%=      5-min Rain = 0
KSE2 150248Z 14007KT 25/18 A2993 RMK A01 T02540179  RH  063%=      5-min Rain = 0
KSE2 150249Z 14009KT 25/18 A2993 RMK A01 T02540180  RH  063%=      5-min Rain = 0
KSE2 150250Z 14008KT 25/18 A2993 RMK A01 T02540179  RH  063%=      5-min Rain = 0
KSE2 150251Z 14008KT 25/18 A2993 RMK A01 T02540179  RH  063%=      5-min Rain = 0
KSE2 150252Z 14009KT 25/18 A2993 RMK A01 T02540180  RH  063%=      5-min Rain = 0
KSE2 150253Z 14009KT 25/18 A2993 RMK A01 T02540179  RH  063%=      5-min Rain = 0
KSE2 150254Z 14009KT 26/18 A2993 RMK A01 T02550180  RH  063%=      5-min Rain = 0
KSE2 150255Z 14009KT 26/18 A2993 RMK A01 T02550180  RH  063%=      5-min Rain = 0
KSE2 150256Z 13009KT 26/18 A2993 RMK A01 T02550180  RH  063%=      5-min Rain = 0
KSE2 150257Z 14009KT 26/18 A2993 RMK A01 T02550180  RH  063%=      5-min Rain = 0
KSE2 150258Z 13009KT 26/18 A2993 RMK A01 T02550180  RH  063%=      5-min Rain = 0
KSE2 150259Z 14009KT 26/18 A2993 RMK A01 T02550180  RH  064%=      5-min Rain = 0
KSE2 150300Z 13009KT 26/18 A2993 RMK A01 T02550181  RH  064%=      5-min Rain = 0
KSE2 150301Z 13009KT 25/18 A2993 RMK A01 T02540180  RH  064%=      5-min Rain = 0
KSE2 150302Z 13009KT 25/18 A2993 RMK A01 T02540181  RH  064%=      5-min Rain = 0
KSE2 150303Z 13008KT 25/18 A2993 RMK A01 T02540181  RH  064%=      5-min Rain = 0
KSE2 150304Z 13008KT 25/18 A2993 RMK A01 T02530181  RH  064%=      5-min Rain = 0
KSE2 150305Z 13007KT 25/18 A2993 RMK A01 T02520181  RH  065%=      5-min Rain = 0
KSE2 150306Z 13008KT 25/18 A2994 RMK A01 T02520181  RH  065%=      5-min Rain = 0
KSE2 150307Z 14008KT 25/18 A2994 RMK A01 T02510181  RH  065%=      5-min Rain = 0
KSE2 150308Z 13008KT 25/18 A2994 RMK A01 T02510181  RH  065%=      5-min Rain = 0
KSE2 150309Z 13008KT 25/18 A2994 RMK A01 T02510181  RH  065%=      5-min Rain = 0
KSE2 150310Z 14007KT 25/18 A2994 RMK A01 T02510181  RH  065%=      5-min Rain = 0
KSE2 150311Z 14008KT 25/18 A2994 RMK A01 T02510182  RH  066%=      5-min Rain = 0
KSE2 150312Z 14008KT 25/18 A2994 RMK A01 T02500181  RH  066%=      5-min Rain = 0
KSE2 150313Z 13008KT 25/18 A2994 RMK A01 T02500181  RH  066%=      5-min Rain = 0
KSE2 150314Z 14007KT 25/18 A2994 RMK A01 T02490182  RH  066%=      5-min Rain = 0
KSE2 150315Z 14007KT 25/18 A2994 RMK A01 T02490182  RH  066%=      5-min Rain = 0
KSE2 150316Z 14007KT 25/18 A2994 RMK A01 T02480181  RH  066%=      5-min Rain = 0
KSE2 150317Z 14007KT 25/18 A2994 RMK A01 T02480181  RH  066%=      5-min Rain = 0
KSE2 150318Z 14007KT 25/18 A2994 RMK A01 T02480181  RH  067%=      5-min Rain = 0
KSE2 150319Z 14007KT 25/18 A2994 RMK A01 T02480182  RH  067%=      5-min Rain = 0
KSE2 150320Z 14009KT 25/18 A2994 RMK A01 T02480182  RH  067%=      5-min Rain = 0
KSE2 150321Z 14007KT 25/18 A2995 RMK A01 T02480182  RH  067%=      5-min Rain = 0
KSE2 150322Z 14008KT 25/18 A2995 RMK A01 T02470182  RH  067%=      5-min Rain = 0
KSE2 150323Z 14008KT 25/18 A2995 RMK A01 T02470182  RH  067%=      5-min Rain = 0
KSE2 150324Z 14009KT 25/18 A2995 RMK A01 T02470182  RH  067%=      5-min Rain = 0
KSE2 150325Z 14008KT 25/18 A2994 RMK A01 T02470181  RH  067%=      5-min Rain = 0
KSE2 150326Z 14008KT 25/18 A2994 RMK A01 T02470182  RH  067%=      5-min Rain = 0
KSE2 150327Z 14009KT 25/18 A2994 RMK A01 T02480182  RH  067%=      5-min Rain = 0
KSE2 150328Z 13007KT 25/18 A2994 RMK A01 T02470182  RH  067%=      5-min Rain = 0
KSE2 150329Z 14008KT 25/18 A2994 RMK A01 T02470182  RH  067%=      5-min Rain = 0
KSE2 150330Z 14008KT 25/18 A2994 RMK A01 T02470182  RH  067%=      5-min Rain = 0
KSE2 150331Z 14007KT 25/18 A2994 RMK A01 T02470182  RH  067%=      5-min Rain = 0
KSE2 150332Z 13008KT 25/18 A2994 RMK A01 T02460182  RH  067%=      5-min Rain = 0
KSE2 150333Z 14009KT 25/18 A2994 RMK A01 T02460182  RH  067%=      5-min Rain = 0
KSE2 150334Z 14007KT 25/18 A2994 RMK A01 T02460182  RH  067%=      5-min Rain = 0
KSE2 150335Z 14008KT 25/18 A2994 RMK A01 T02460182  RH  067%=      5-min Rain = 0
KSE2 150336Z 14008KT 25/18 A2994 RMK A01 T02460182  RH  068%=      5-min Rain = 0
KSE2 150337Z 14007KT 25/18 A2994 RMK A01 T02450182  RH  068%=      5-min Rain = 0
KSE2 150338Z 14009KT 25/18 A2994 RMK A01 T02450182  RH  068%=      5-min Rain = 0
KSE2 150339Z 14009KT 25/18 A2994 RMK A01 T02450182  RH  068%=      5-min Rain = 0
KSE2 150340Z 14009KT 25/18 A2994 RMK A01 T02450181  RH  067%=      5-min Rain = 0
KSE2 150341Z 14010KT 25/18 A2994 RMK A01 T02460181  RH  067%=      5-min Rain = 0
KSE2 150342Z 14010KT 25/18 A2994 RMK A01 T02460181  RH  067%=      5-min Rain = 0
KSE2 150343Z 14010G15KT 25/18 A2994 RMK A01 T02470181  RH  067%=      5-min Rain = 0
KSE2 150344Z 14010KT 25/18 A2994 RMK A01 T02470181  RH  067%=      5-min Rain = 0
KSE2 150345Z 14009KT 25/18 A2994 RMK A01 T02470181  RH  067%=      5-min Rain = 0
KSE2 150346Z 14009KT 25/18 A2994 RMK A01 T02470182  RH  067%=      5-min Rain = 0
KSE2 150347Z 14009KT 25/18 A2994 RMK A01 T02460182  RH  067%=      5-min Rain = 0
KSE2 150348Z 15009KT 25/18 A2994 RMK A01 T02460182  RH  067%=      5-min Rain = 0
KSE2 150349Z 14008KT 25/18 A2994 RMK A01 T02460182  RH  067%=      5-min Rain = 0
KSE2 150350Z 14008KT 25/18 A2994 RMK A01 T02460182  RH  067%=      5-min Rain = 0
KSE2 150351Z 14009KT 25/18 A2994 RMK A01 T02460182  RH  068%=      5-min Rain = 0
KSE2 150352Z 14008KT 25/18 A2994 RMK A01 T02450182  RH  068%=      5-min Rain = 0
KSE2 150353Z 15011KT 25/18 A2994 RMK A01 T02450182  RH  068%=      5-min Rain = 0
KSE2 150354Z 15009KT 25/18 A2994 RMK A01 T02460182  RH  068%=      5-min Rain = 0
KSE2 150355Z 15010KT 25/18 A2994 RMK A01 T02460182  RH  067%=      5-min Rain = 0
KSE2 150356Z 14009KT 25/18 A2994 RMK A01 T02460182  RH  067%=      5-min Rain = 0
KSE2 150357Z 15010KT 25/18 A2994 RMK A01 T02460182  RH  068%=      5-min Rain = 0
KSE2 150358Z 15010KT 25/18 A2994 RMK A01 T02460182  RH  068%=      5-min Rain = 0
KSE2 150359Z 14008KT 25/18 A2994 RMK A01 T02450182  RH  068%=      5-min Rain = 0
KSE2 150400Z 15009KT 25/18 A2994 RMK A01 T02450183  RH  068%=      5-min Rain = 0
KSE2 150401Z 14009KT 25/18 A2994 RMK A01 T02450182  RH  068%=      5-min Rain = 0
KSE2 150402Z 14009G15KT 25/18 A2994 RMK A01 T02450182  RH  068%=      5-min Rain = 0
KSE2 150403Z 15008KT 25/18 A2994 RMK A01 T02450183  RH  068%=      5-min Rain = 0
KSE2 150404Z 14010KT 25/18 A2994 RMK A01 T02450183  RH  068%=      5-min Rain = 0
KSE2 150405Z 14012KT 25/18 A2994 RMK A01 T02450183  RH  068%=      5-min Rain = 0
KSE2 150406Z 14009KT 25/18 A2994 RMK A01 T02450183  RH  068%=      5-min Rain = 0
KSE2 150407Z 14007KT 25/18 A2994 RMK A01 T02450183  RH  068%=      5-min Rain = 0
KSE2 150408Z 14008KT 25/18 A2994 RMK A01 T02450183  RH  068%=      5-min Rain = 0
KSE2 150409Z 14009KT 25/18 A2994 RMK A01 T02450183  RH  069%=      5-min Rain = 0
KSE2 150410Z 14011KT 24/18 A2994 RMK A01 T02440183  RH  069%=      5-min Rain = 0
KSE2 150411Z 14011KT 24/18 A2994 RMK A01 T02440183  RH  069%=      5-min Rain = 0
KSE2 150412Z 14009KT 25/18 A2994 RMK A01 T02450183  RH  069%=      5-min Rain = 0
KSE2 150413Z 14008KT 24/18 A2994 RMK A01 T02440184  RH  069%=      5-min Rain = 0
KSE2 150414Z 14008KT 24/18 A2995 RMK A01 T02430184  RH  069%=      5-min Rain = 0
KSE2 150415Z 14010KT 24/18 A2995 RMK A01 T02430184  RH  069%=      5-min Rain = 0
KSE2 150416Z 14011KT 24/18 A2995 RMK A01 T02430183  RH  069%=      5-min Rain = 0
KSE2 150417Z 14009KT 24/18 A2995 RMK A01 T02430184  RH  069%=      5-min Rain = 0
KSE2 150418Z 14008KT 24/18 A2995 RMK A01 T02440184  RH  069%=      5-min Rain = 0
KSE2 150419Z 14007KT 24/18 A2995 RMK A01 T02430184  RH  069%=      5-min Rain = 0
KSE2 150420Z 14009KT 24/18 A2995 RMK A01 T02430184  RH  070%=      5-min Rain = 0
KSE2 150421Z 14009KT 24/18 A2995 RMK A01 T02420184  RH  070%=      5-min Rain = 0
KSE2 150422Z 14007KT 24/18 A2995 RMK A01 T02420184  RH  070%=      5-min Rain = 0
KSE2 150423Z 14010KT 24/18 A2995 RMK A01 T02410184  RH  070%=      5-min Rain = 0
KSE2 150424Z 14007KT 24/18 A2995 RMK A01 T02410184  RH  070%=      5-min Rain = 0
KSE2 150425Z 15009KT 24/19 A2995 RMK A01 T02410185  RH  071%=      5-min Rain = 0
KSE2 150426Z 14009KT 24/19 A2995 RMK A01 T02410185  RH  071%=      5-min Rain = 0
KSE2 150427Z 14012KT 24/19 A2995 RMK A01 T02420185  RH  071%=      5-min Rain = 0
KSE2 150428Z 15010KT 24/19 A2995 RMK A01 T02420185  RH  070%=      5-min Rain = 0
KSE2 150429Z 15011KT 24/19 A2995 RMK A01 T02420185  RH  070%=      5-min Rain = 0
KSE2 150430Z 14012KT 24/19 A2995 RMK A01 T02430185  RH  070%=      5-min Rain = 0
KSE2 150431Z 15013KT 24/19 A2995 RMK A01 T02430185  RH  070%=      5-min Rain = 0
KSE2 150432Z 15011KT 24/19 A2995 RMK A01 T02440186  RH  070%=      5-min Rain = 0
KSE2 150433Z 15010KT 24/19 A2995 RMK A01 T02440186  RH  070%=      5-min Rain = 0
KSE2 150434Z 15011KT 24/19 A2995 RMK A01 T02440186  RH  070%=      5-min Rain = 0
KSE2 150435Z 15011KT 24/19 A2995 RMK A01 T02440186  RH  070%=      5-min Rain = 0
KSE2 150436Z 16009KT 24/19 A2995 RMK A01 T02430187  RH  071%=      5-min Rain = 0
KSE2 150437Z 15009KT 24/19 A2995 RMK A01 T02430187  RH  071%=      5-min Rain = 0
KSE2 150438Z 15012G17KT 24/19 A2995 RMK A01 T02430187  RH  071%=      5-min Rain = 0
KSE2 150439Z 14011KT 24/19 A2995 RMK A01 T02430187  RH  071%=      5-min Rain = 0
KSE2 150440Z 14012KT 24/19 A2995 RMK A01 T02430188  RH  071%=      5-min Rain = 0
KSE2 150441Z 15009KT 24/19 A2995 RMK A01 T02430188  RH  071%=      5-min Rain = 0
KSE2 150442Z 15010KT 24/19 A2995 RMK A01 T02430188  RH  071%=      5-min Rain = 0
KSE2 150443Z 14009KT 24/19 A2995 RMK A01 T02430188  RH  071%=      5-min Rain = 0
KSE2 150444Z 15010KT 24/19 A2995 RMK A01 T02430188  RH  072%=      5-min Rain = 0
KSE2 150445Z 15009KT 24/19 A2995 RMK A01 T02430189  RH  072%=      5-min Rain = 0
KSE2 150446Z 15011KT 24/19 A2995 RMK A01 T02430189  RH  072%=      5-min Rain = 0
KSE2 150447Z 15013KT 24/19 A2996 RMK A01 T02430189  RH  072%=      5-min Rain = 0
KSE2 150448Z 15011KT 24/19 A2996 RMK A01 T02430189  RH  072%=      5-min Rain = 0
KSE2 150449Z 15011KT 24/19 A2996 RMK A01 T02430189  RH  072%=      5-min Rain = 0
KSE2 150450Z 15011KT 24/19 A2996 RMK A01 T02430189  RH  072%=      5-min Rain = 0
KSE2 150451Z 16012KT 24/19 A2996 RMK A01 T02430189  RH  072%=      5-min Rain = 0
KSE2 150452Z 16011KT 24/19 A2996 RMK A01 T02430189  RH  072%=      5-min Rain = 0
KSE2 150453Z 16011KT 24/19 A2996 RMK A01 T02430190  RH  072%=      5-min Rain = 0
KSE2 150454Z 16011KT 24/19 A2996 RMK A01 T02430190  RH  072%=      5-min Rain = 0
KSE2 150455Z 16010KT 24/19 A2996 RMK A01 T02430190  RH  072%=      5-min Rain = 0
KSE2 150456Z 15012KT 24/19 A2996 RMK A01 T02430190  RH  072%=      5-min Rain = 0
KSE2 150457Z 15010KT 24/19 A2996 RMK A01 T02430191  RH  072%=      5-min Rain = 0
KSE2 150458Z 15012KT 24/19 A2996 RMK A01 T02430190  RH  073%=      5-min Rain = 0
KSE2 150459Z 16013KT 24/19 A2996 RMK A01 T02430190  RH  072%=      5-min Rain = 0

Page generated in 0.0969 seconds.